Observation data for Lesley on 01/11/2018      Previous  Date  Next       Current Mesonet Observations  Soil Data  Daily Summary Page  Observations in Plain Language
KLE1 110600Z 22015KT 13/M01 A2948 RMK A01 T01341009  RH  037%=      5-min Rain = 0
KLE1 110601Z 22016KT 13/M01 A2948 RMK A01 T01341009  RH  037%=      5-min Rain = 0
KLE1 110602Z 22016KT 13/M01 A2948 RMK A01 T01331009  RH  037%=      5-min Rain = 0
KLE1 110603Z 22014KT 13/M01 A2948 RMK A01 T01341009  RH  037%=      5-min Rain = 0
KLE1 110604Z 22014KT 13/M01 A2948 RMK A01 T01341009  RH  037%=      5-min Rain = 0
KLE1 110605Z 21015KT 13/M01 A2948 RMK A01 T01331009  RH  037%=      5-min Rain = 0
KLE1 110606Z 22016G21KT 13/M01 A2948 RMK A01 T01331009  RH  037%=      5-min Rain = 0
KLE1 110607Z 22017G22KT 13/M01 A2948 RMK A01 T01331009  RH  037%=      5-min Rain = 0
KLE1 110608Z 22015KT 13/M01 A2948 RMK A01 T01341008  RH  037%=      5-min Rain = 0
KLE1 110609Z 22014KT 13/M01 A2948 RMK A01 T01341009  RH  037%=      5-min Rain = 0
KLE1 110610Z 22015KT 13/M01 A2948 RMK A01 T01341009  RH  037%=      5-min Rain = 0
KLE1 110611Z 22014KT 13/M01 A2948 RMK A01 T01331009  RH  037%=      5-min Rain = 0
KLE1 110612Z 22013KT 13/M01 A2948 RMK A01 T01331009  RH  038%=      5-min Rain = 0
KLE1 110613Z 21013KT 13/M01 A2948 RMK A01 T01321009  RH  038%=      5-min Rain = 0
KLE1 110614Z 21013KT 13/M01 A2947 RMK A01 T01321009  RH  038%=      5-min Rain = 0
KLE1 110615Z 22013G18KT 13/M01 A2947 RMK A01 T01311009  RH  038%=      5-min Rain = 0
KLE1 110616Z 22015KT 13/M01 A2947 RMK A01 T01301009  RH  038%=      5-min Rain = 0
KLE1 110617Z 21014KT 13/M01 A2947 RMK A01 T01301008  RH  038%=      5-min Rain = 0
KLE1 110618Z 22013KT 13/M01 A2947 RMK A01 T01301009  RH  038%=      5-min Rain = 0
KLE1 110619Z 22013KT 13/M01 A2947 RMK A01 T01301008  RH  038%=      5-min Rain = 0
KLE1 110620Z 21014G20KT 13/M01 A2947 RMK A01 T01301008  RH  039%=      5-min Rain = 0
KLE1 110621Z 21014KT 13/M01 A2947 RMK A01 T01291009  RH  039%=      5-min Rain = 0
KLE1 110622Z 22012KT 13/M01 A2947 RMK A01 T01301008  RH  039%=      5-min Rain = 0
KLE1 110623Z 22012KT 13/M01 A2947 RMK A01 T01281009  RH  039%=      5-min Rain = 0
KLE1 110624Z 22015KT 13/M01 A2947 RMK A01 T01271009  RH  039%=      5-min Rain = 0
KLE1 110625Z 22013KT 13/M01 A2947 RMK A01 T01261008  RH  039%=      5-min Rain = 0
KLE1 110626Z 22013KT 13/M01 A2947 RMK A01 T01271008  RH  039%=      5-min Rain = 0
KLE1 110627Z 22012KT 13/M01 A2947 RMK A01 T01271008  RH  039%=      5-min Rain = 0
KLE1 110628Z 22012KT 13/M01 A2947 RMK A01 T01261008  RH  039%=      5-min Rain = 0
KLE1 110629Z 21014KT 13/M01 A2947 RMK A01 T01261008  RH  040%=      5-min Rain = 0
KLE1 110630Z 21012KT 13/M01 A2947 RMK A01 T01261007  RH  040%=      5-min Rain = 0
KLE1 110631Z 21012KT 13/M01 A2947 RMK A01 T01261008  RH  040%=      5-min Rain = 0
KLE1 110632Z 21011KT 13/M01 A2947 RMK A01 T01251008  RH  040%=      5-min Rain = 0
KLE1 110633Z 21010KT 12/M01 A2947 RMK A01 T01241008  RH  040%=      5-min Rain = 0
KLE1 110634Z 20011KT 12/M01 A2947 RMK A01 T01231008  RH  040%=      5-min Rain = 0
KLE1 110635Z 21010KT 12/M01 A2947 RMK A01 T01221007  RH  041%=      5-min Rain = 0
KLE1 110636Z 21012KT 12/M01 A2947 RMK A01 T01221007  RH  041%=      5-min Rain = 0
KLE1 110637Z 20011KT 12/M01 A2947 RMK A01 T01211007  RH  041%=      5-min Rain = 0
KLE1 110638Z 21010KT 12/M01 A2947 RMK A01 T01211007  RH  041%=      5-min Rain = 0
KLE1 110639Z 20010KT 12/M01 A2947 RMK A01 T01191008  RH  041%=      5-min Rain = 0
KLE1 110640Z 21010KT 12/M01 A2947 RMK A01 T01171008  RH  042%=      5-min Rain = 0
KLE1 110641Z 21011KT 12/M01 A2947 RMK A01 T01171007  RH  042%=      5-min Rain = 0
KLE1 110642Z 21011KT 12/M01 A2947 RMK A01 T01181007  RH  042%=      5-min Rain = 0
KLE1 110643Z 21010KT 12/M01 A2947 RMK A01 T01181007  RH  042%=      5-min Rain = 0
KLE1 110644Z 21009KT 12/M01 A2947 RMK A01 T01171007  RH  042%=      5-min Rain = 0
KLE1 110645Z 20009KT 12/M01 A2947 RMK A01 T01161007  RH  042%=      5-min Rain = 0
KLE1 110646Z 20009KT 12/M01 A2947 RMK A01 T01161007  RH  043%=      5-min Rain = 0
KLE1 110647Z 20008KT 12/M01 A2947 RMK A01 T01151007  RH  043%=      5-min Rain = 0
KLE1 110648Z 20009KT 12/M01 A2947 RMK A01 T01151007  RH  043%=      5-min Rain = 0
KLE1 110649Z 20008KT 11/M01 A2947 RMK A01 T01141007  RH  043%=      5-min Rain = 0
KLE1 110650Z 20009KT 11/M01 A2947 RMK A01 T01131007  RH  043%=      5-min Rain = 0
KLE1 110651Z 20008KT 11/M01 A2947 RMK A01 T01131007  RH  044%=      5-min Rain = 0
KLE1 110652Z 20008KT 11/M01 A2947 RMK A01 T01131006  RH  044%=      5-min Rain = 0
KLE1 110653Z 20007KT 11/M01 A2947 RMK A01 T01131007  RH  044%=      5-min Rain = 0
KLE1 110654Z 20007KT 11/M01 A2947 RMK A01 T01121007  RH  044%=      5-min Rain = 0
KLE1 110655Z 20007KT 11/M01 A2947 RMK A01 T01101008  RH  044%=      5-min Rain = 0
KLE1 110656Z 20007KT 11/M01 A2947 RMK A01 T01081008  RH  045%=      5-min Rain = 0
KLE1 110657Z 20008KT 11/M01 A2947 RMK A01 T01071007  RH  045%=      5-min Rain = 0
KLE1 110658Z 20009KT 11/M01 A2947 RMK A01 T01061007  RH  045%=      5-min Rain = 0
KLE1 110659Z 20009KT 11/M01 A2947 RMK A01 T01051008  RH  045%=      5-min Rain = 0
KLE1 110700Z 20009KT 11/M01 A2947 RMK A01 T01051007  RH  046%=      5-min Rain = 0
KLE1 110701Z 20009KT 11/M01 A2947 RMK A01 T01051007  RH  046%=      5-min Rain = 0
KLE1 110702Z 21010KT 10/M01 A2947 RMK A01 T01041007  RH  046%=      5-min Rain = 0
KLE1 110703Z 21010KT 11/M01 A2947 RMK A01 T01051006  RH  046%=      5-min Rain = 0
KLE1 110704Z 20012KT 11/M00 A2947 RMK A01 T01081004  RH  046%=      5-min Rain = 0
KLE1 110705Z 20012KT 11/M00 A2947 RMK A01 T01091004  RH  046%=      5-min Rain = 0
KLE1 110706Z 21012KT 11/M00 A2946 RMK A01 T01101003  RH  045%=      5-min Rain = 0
KLE1 110707Z 21012KT 11/M00 A2947 RMK A01 T01111003  RH  045%=      5-min Rain = 0
KLE1 110708Z 21011KT 11/M00 A2947 RMK A01 T01121003  RH  045%=      5-min Rain = 0
KLE1 110709Z 21013KT 11/M00 A2947 RMK A01 T01121002  RH  045%=      5-min Rain = 0
KLE1 110710Z 21012KT 11/M00 A2947 RMK A01 T01121002  RH  045%=      5-min Rain = 0
KLE1 110711Z 20013KT 11/M00 A2946 RMK A01 T01121001  RH  046%=      5-min Rain = 0
KLE1 110712Z 21013KT 11/M00 A2946 RMK A01 T01121001  RH  046%=      5-min Rain = 0
KLE1 110713Z 21012KT 11/M00 A2946 RMK A01 T01121001  RH  045%=      5-min Rain = 0
KLE1 110714Z 21011KT 11/M00 A2947 RMK A01 T01131001  RH  045%=      5-min Rain = 0
KLE1 110715Z 20011KT 11/M00 A2947 RMK A01 T01131001  RH  045%=      5-min Rain = 0
KLE1 110716Z 20012KT 11/M00 A2947 RMK A01 T01121002  RH  045%=      5-min Rain = 0
KLE1 110717Z 20011KT 11/M00 A2947 RMK A01 T01121001  RH  046%=      5-min Rain = 0
KLE1 110718Z 20010KT 11/M00 A2947 RMK A01 T01111002  RH  046%=      5-min Rain = 0
KLE1 110719Z 20011KT 11/M00 A2947 RMK A01 T01111001  RH  046%=      5-min Rain = 0
KLE1 110720Z 20011KT 11/M00 A2946 RMK A01 T01111001  RH  046%=      5-min Rain = 0
KLE1 110721Z 19011KT 11/M00 A2946 RMK A01 T01101001  RH  046%=      5-min Rain = 0
KLE1 110722Z 20009KT 11/M00 A2946 RMK A01 T01101001  RH  046%=      5-min Rain = 0
KLE1 110723Z 20009KT 11/M00 A2946 RMK A01 T01081002  RH  047%=      5-min Rain = 0
KLE1 110724Z 20010KT 11/M00 A2946 RMK A01 T01071002  RH  047%=      5-min Rain = 0
KLE1 110725Z 20010KT 11/M00 A2946 RMK A01 T01061002  RH  047%=      5-min Rain = 0
KLE1 110726Z 20009KT 11/M00 A2946 RMK A01 T01061002  RH  047%=      5-min Rain = 0
KLE1 110727Z 20010KT 11/M00 A2946 RMK A01 T01051002  RH  047%=      5-min Rain = 0
KLE1 110728Z 20010KT 11/M00 A2946 RMK A01 T01051002  RH  048%=      5-min Rain = 0
KLE1 110729Z 20010KT 10/M00 A2946 RMK A01 T01041002  RH  048%=      5-min Rain = 0
KLE1 110730Z 21010KT 11/M00 A2946 RMK A01 T01051002  RH  048%=      5-min Rain = 0
KLE1 110731Z 21010KT 10/M00 A2946 RMK A01 T01041002  RH  048%=      5-min Rain = 0
KLE1 110732Z 20010KT 10/M00 A2946 RMK A01 T01031003  RH  048%=      5-min Rain = 0
KLE1 110733Z 20010KT 10/M00 A2946 RMK A01 T01031003  RH  048%=      5-min Rain = 0
KLE1 110734Z 21011KT 10/M00 A2946 RMK A01 T01031003  RH  048%=      5-min Rain = 0
KLE1 110735Z 21011KT 10/M00 A2946 RMK A01 T01031003  RH  048%=      5-min Rain = 0
KLE1 110736Z 21011KT 10/M00 A2946 RMK A01 T01031003  RH  048%=      5-min Rain = 0
KLE1 110737Z 21012KT 10/M00 A2946 RMK A01 T01041004  RH  047%=      5-min Rain = 0
KLE1 110738Z 21011KT 11/M00 A2946 RMK A01 T01051003  RH  047%=      5-min Rain = 0
KLE1 110739Z 21012KT 11/M00 A2945 RMK A01 T01051004  RH  047%=      5-min Rain = 0
KLE1 110740Z 21013KT 11/M00 A2945 RMK A01 T01061004  RH  047%=      5-min Rain = 0
KLE1 110741Z 22013KT 11/M00 A2945 RMK A01 T01071004  RH  046%=      5-min Rain = 0
KLE1 110742Z 22012KT 11/M01 A2945 RMK A01 T01071005  RH  046%=      5-min Rain = 0
KLE1 110743Z 22012KT 11/M01 A2945 RMK A01 T01071005  RH  046%=      5-min Rain = 0
KLE1 110744Z 22012KT 11/M01 A2945 RMK A01 T01071005  RH  046%=      5-min Rain = 0
KLE1 110745Z 22011KT 11/M01 A2945 RMK A01 T01081005  RH  045%=      5-min Rain = 0
KLE1 110746Z 22012KT 11/M01 A2945 RMK A01 T01081006  RH  045%=      5-min Rain = 0
KLE1 110747Z 22013KT 11/M01 A2945 RMK A01 T01091006  RH  045%=      5-min Rain = 0
KLE1 110748Z 23013KT 11/M01 A2945 RMK A01 T01101006  RH  045%=      5-min Rain = 0
KLE1 110749Z 23012KT 11/M01 A2945 RMK A01 T01111006  RH  044%=      5-min Rain = 0
KLE1 110750Z 23012KT 11/M01 A2945 RMK A01 T01111006  RH  044%=      5-min Rain = 0
KLE1 110751Z 23012KT 11/M01 A2945 RMK A01 T01111007  RH  044%=      5-min Rain = 0
KLE1 110752Z 23011KT 11/M01 A2945 RMK A01 T01111007  RH  044%=      5-min Rain = 0
KLE1 110753Z 23011KT 11/M01 A2946 RMK A01 T01111007  RH  044%=      5-min Rain = 0
KLE1 110754Z 23011KT 11/M01 A2946 RMK A01 T01111008  RH  044%=      5-min Rain = 0
KLE1 110755Z 24011KT 11/M01 A2946 RMK A01 T01101008  RH  044%=      5-min Rain = 0
KLE1 110756Z 23010KT 11/M01 A2946 RMK A01 T01091009  RH  044%=      5-min Rain = 0
KLE1 110757Z 24010KT 11/M01 A2946 RMK A01 T01081009  RH  044%=      5-min Rain = 0
KLE1 110758Z 24009KT 11/M01 A2946 RMK A01 T01071010  RH  044%=      5-min Rain = 0
KLE1 110759Z 25009KT 11/M01 A2946 RMK A01 T01061010  RH  044%=      5-min Rain = 0
KLE1 110800Z 25009KT 11/M01 A2946 RMK A01 T01051010  RH  045%=      5-min Rain = 0
KLE1 110801Z 25009KT 10/M01 A2946 RMK A01 T01041011  RH  045%=      5-min Rain = 0
KLE1 110802Z 25009KT 10/M01 A2946 RMK A01 T01041011  RH  045%=      5-min Rain = 0
KLE1 110803Z 25009KT 11/M01 A2946 RMK A01 T01051011  RH  045%=      5-min Rain = 0
KLE1 110804Z 25010KT 11/M01 A2946 RMK A01 T01051011  RH  044%=      5-min Rain = 0
KLE1 110805Z 26009KT 11/M01 A2946 RMK A01 T01051011  RH  044%=      5-min Rain = 0
KLE1 110806Z 26010KT 11/M01 A2946 RMK A01 T01051011  RH  044%=      5-min Rain = 0
KLE1 110807Z 25010KT 11/M01 A2946 RMK A01 T01061011  RH  044%=      5-min Rain = 0
KLE1 110808Z 25012KT 11/M01 A2946 RMK A01 T01061010  RH  044%=      5-min Rain = 0
KLE1 110809Z 26011KT 11/M01 A2946 RMK A01 T01091009  RH  044%=      5-min Rain = 0
KLE1 110810Z 26013KT 11/M01 A2946 RMK A01 T01111008  RH  044%=      5-min Rain = 0
KLE1 110811Z 26012KT 11/M01 A2946 RMK A01 T01131009  RH  043%=      5-min Rain = 0
KLE1 110812Z 27012KT 11/M01 A2946 RMK A01 T01141010  RH  042%=      5-min Rain = 0
KLE1 110813Z 27012KT 12/M01 A2946 RMK A01 T01151010  RH  042%=      5-min Rain = 0
KLE1 110814Z 27013KT 12/M01 A2946 RMK A01 T01151010  RH  042%=      5-min Rain = 0
KLE1 110815Z 27012KT 12/M01 A2946 RMK A01 T01161010  RH  042%=      5-min Rain = 0
KLE1 110816Z 27013KT 12/M01 A2946 RMK A01 T01151011  RH  042%=      5-min Rain = 0
KLE1 110817Z 27013KT 12/M01 A2946 RMK A01 T01151011  RH  042%=      5-min Rain = 0
KLE1 110818Z 28013KT 11/M01 A2946 RMK A01 T01141011  RH  042%=      5-min Rain = 0
KLE1 110819Z 29013KT 11/M01 A2946 RMK A01 T01141011  RH  042%=      5-min Rain = 0
KLE1 110820Z 28013KT 12/M01 A2946 RMK A01 T01151011  RH  042%=      5-min Rain = 0
KLE1 110821Z 29013KT 12/M01 A2946 RMK A01 T01161011  RH  041%=      5-min Rain = 0
KLE1 110822Z 29013KT 12/M01 A2946 RMK A01 T01161011  RH  041%=      5-min Rain = 0
KLE1 110823Z 29015KT 12/M01 A2946 RMK A01 T01161012  RH  041%=      5-min Rain = 0
KLE1 110824Z 29017KT 12/M01 A2946 RMK A01 T01171011  RH  041%=      5-min Rain = 0
KLE1 110825Z 29015G20KT 12/M01 A2947 RMK A01 T01191011  RH  041%=      5-min Rain = 0
KLE1 110826Z 29016KT 12/M01 A2947 RMK A01 T01191011  RH  040%=      5-min Rain = 0
KLE1 110827Z 29019KT 12/M01 A2947 RMK A01 T01191011  RH  040%=      5-min Rain = 0
KLE1 110828Z 29017KT 12/M01 A2947 RMK A01 T01201011  RH  040%=      5-min Rain = 0
KLE1 110829Z 29015KT 12/M01 A2947 RMK A01 T01201012  RH  040%=      5-min Rain = 0
KLE1 110830Z 29016KT 12/M01 A2947 RMK A01 T01191012  RH  040%=      5-min Rain = 0
KLE1 110831Z 29018G25KT 12/M01 A2947 RMK A01 T01181012  RH  041%=      5-min Rain = 0
KLE1 110832Z 29020G25KT 12/M01 A2947 RMK A01 T01191012  RH  040%=      5-min Rain = 0
KLE1 110833Z 30017KT 12/M01 A2947 RMK A01 T01191012  RH  040%=      5-min Rain = 0
KLE1 110834Z 30020KT 12/M01 A2947 RMK A01 T01191012  RH  040%=      5-min Rain = 0
KLE1 110835Z 31020KT 12/M01 A2948 RMK A01 T01191011  RH  040%=      5-min Rain = 0
KLE1 110836Z 30019KT 12/M01 A2948 RMK A01 T01201011  RH  040%=      5-min Rain = 0
KLE1 110837Z 31021G26KT 12/M01 A2948 RMK A01 T01201012  RH  040%=      5-min Rain = 0
KLE1 110838Z 31024KT 12/M01 A2948 RMK A01 T01181013  RH  040%=      5-min Rain = 0
KLE1 110839Z 32025KT 12/M01 A2949 RMK A01 T01181012  RH  040%=      5-min Rain = 0
KLE1 110840Z 32023G28KT 12/M01 A2949 RMK A01 T01171013  RH  040%=      5-min Rain = 0
KLE1 110841Z 32022KT 12/M01 A2949 RMK A01 T01161014  RH  040%=      5-min Rain = 0
KLE1 110842Z 33024KT 12/M01 A2949 RMK A01 T01151014  RH  041%=      5-min Rain = 0
KLE1 110843Z 32026G31KT 11/M01 A2949 RMK A01 T01141014  RH  041%=      5-min Rain = 0
KLE1 110844Z 33029G36KT 11/M01 A2949 RMK A01 T01131013  RH  042%=      5-min Rain = 0
KLE1 110845Z 34025KT 11/M01 A295 RMK A01 T01131013  RH  042%=      5-min Rain = 0
KLE1 110846Z 34026G32KT 11/M01 A295 RMK A01 T01111013  RH  042%=      5-min Rain = 0
KLE1 110847Z 33021G26KT 11/M01 A295 RMK A01 T01101012  RH  043%=      5-min Rain = 0
KLE1 110848Z 33022G27KT 11/M01 A295 RMK A01 T01091012  RH  043%=      5-min Rain = 0
KLE1 110849Z 33024KT 11/M01 A295 RMK A01 T01081012  RH  043%=      5-min Rain = 0
KLE1 110850Z 34022G28KT 11/M01 A295 RMK A01 T01071010  RH  044%=      5-min Rain = 0
KLE1 110851Z 33024G32KT 11/M01 A295 RMK A01 T01071010  RH  044%=      5-min Rain = 0
KLE1 110852Z 33023KT 11/M01 A2951 RMK A01 T01071009  RH  045%=      5-min Rain = 0
KLE1 110853Z 34022KT 11/M01 A2951 RMK A01 T01061009  RH  045%=      5-min Rain = 0
KLE1 110854Z 33024KT 11/M01 A2951 RMK A01 T01061008  RH  045%=      5-min Rain = 0
KLE1 110855Z 33023KT 11/M01 A2951 RMK A01 T01061007  RH  046%=      5-min Rain = 0
KLE1 110856Z 33025KT 11/M01 A2951 RMK A01 T01061005  RH  046%=      5-min Rain = 0
KLE1 110857Z 33026G33KT 11/M00 A2951 RMK A01 T01061003  RH  047%=      5-min Rain = 0
KLE1 110858Z 33028KT 11/M00 A2951 RMK A01 T01081002  RH  047%=      5-min Rain = 0
KLE1 110859Z 33026KT 11/M00 A2952 RMK A01 T01081001  RH  047%=      5-min Rain = 0
KLE1 110900Z 33025KT 11/M00 A2952 RMK A01 T01081001  RH  047%=      5-min Rain = 0
KLE1 110901Z 33028G35KT 11/00 A2952 RMK A01 T01080000  RH  047%=      5-min Rain = 0
KLE1 110902Z 33031KT 11/00 A2952 RMK A01 T01080002  RH  048%=      5-min Rain = 0
KLE1 110903Z 34030G37KT 11/00 A2952 RMK A01 T01090003  RH  048%=      5-min Rain = 0
KLE1 110904Z 34030G39KT 11/00 A2952 RMK A01 T01090003  RH  048%=      5-min Rain = 0
KLE1 110905Z 34030G36KT 11/00 A2952 RMK A01 T01090004  RH  048%=      5-min Rain = 0
KLE1 110906Z 33025G33KT 11/01 A2952 RMK A01 T01090005  RH  049%=      5-min Rain = 0
KLE1 110907Z 33034G43KT 11/01 A2953 RMK A01 T01090006  RH  049%=      5-min Rain = 0
KLE1 110908Z 34039G48KT 11/01 A2952 RMK A01 T01080009  RH  050%=      5-min Rain = 0
KLE1 110909Z 34035G42KT 11/01 A2953 RMK A01 T01080010  RH  051%=      5-min Rain = 0
KLE1 110910Z 33039G45KT 11/01 A2953 RMK A01 T01080012  RH  051%=      5-min Rain = 0
KLE1 110911Z 34043G53KT 11/01 A2953 RMK A01 T01070014  RH  053%=      5-min Rain = 0
KLE1 110912Z 34039G49KT 11/02 A2953 RMK A01 T01070015  RH  053%=      5-min Rain = 0
KLE1 110913Z 33036G46KT 11/02 A2953 RMK A01 T01060015  RH  053%=      5-min Rain = 0
KLE1 110914Z 33042G47KT 11/02 A2953 RMK A01 T01050015  RH  054%=      5-min Rain = 0
KLE1 110915Z 34034G42KT 11/02 A2953 RMK A01 T01050015  RH  054%=      5-min Rain = 0
KLE1 110916Z 34033G40KT 10/02 A2953 RMK A01 T01040015  RH  054%=      5-min Rain = 0
KLE1 110917Z 34034G40KT 10/02 A2953 RMK A01 T01040015  RH  054%=      5-min Rain = 0
KLE1 110918Z 34032G38KT 10/01 A2953 RMK A01 T01030014  RH  054%=      5-min Rain = 0
KLE1 110919Z 34029KT 10/01 A2953 RMK A01 T01030014  RH  054%=      5-min Rain = 0
KLE1 110920Z 34028G35KT 10/01 A2954 RMK A01 T01020014  RH  054%=      5-min Rain = 0
KLE1 110921Z 34033G38KT 10/01 A2954 RMK A01 T01020013  RH  054%=      5-min Rain = 0
KLE1 110922Z 34043G51KT 10/01 A2953 RMK A01 T01010012  RH  054%=      5-min Rain = 0
KLE1 110923Z 34038G44KT 10/01 A2953 RMK A01 T01000012  RH  054%=      5-min Rain = 0
KLE1 110924Z 34041G46KT 10/01 A2953 RMK A01 T00990011  RH  054%=      5-min Rain = 0
KLE1 110925Z 34037G47KT 10/01 A2954 RMK A01 T00990011  RH  054%=      5-min Rain = 0
KLE1 110926Z 34036G43KT 10/01 A2954 RMK A01 T00980011  RH  055%=      5-min Rain = 0
KLE1 110927Z 34036G45KT 10/01 A2954 RMK A01 T00980011  RH  055%=      5-min Rain = 0
KLE1 110928Z 34034G44KT 10/01 A2954 RMK A01 T00970011  RH  055%=      5-min Rain = 0
KLE1 110929Z 35038G43KT 10/01 A2954 RMK A01 T00960011  RH  055%=      5-min Rain = 0
KLE1 110930Z 34037G44KT 10/01 A2954 RMK A01 T00950012  RH  056%=      5-min Rain = 0
KLE1 110931Z 34037G44KT 10/01 A2955 RMK A01 T00950012  RH  056%=      5-min Rain = 0
KLE1 110932Z 35038G47KT 09/01 A2955 RMK A01 T00940012  RH  056%=      5-min Rain = 0
KLE1 110933Z 34033G40KT 09/01 A2955 RMK A01 T00940013  RH  057%=      5-min Rain = 0
KLE1 110934Z 34037G48KT 09/01 A2955 RMK A01 T00930013  RH  057%=      5-min Rain = 0
KLE1 110935Z 34035KT 09/01 A2955 RMK A01 T00920012  RH  057%=      5-min Rain = 0
KLE1 110936Z 34030G35KT 09/01 A2955 RMK A01 T00920013  RH  058%=      5-min Rain = 0
KLE1 110937Z 33029G35KT 09/01 A2955 RMK A01 T00920012  RH  058%=      5-min Rain = 0
KLE1 110938Z 34031G37KT 09/01 A2955 RMK A01 T00910012  RH  058%=      5-min Rain = 0
KLE1 110939Z 34034G39KT 09/01 A2956 RMK A01 T00910013  RH  058%=      5-min Rain = 0
KLE1 110940Z 34031KT 09/01 A2956 RMK A01 T00900013  RH  058%=      5-min Rain = 0
KLE1 110941Z 34029G34KT 09/01 A2956 RMK A01 T00900013  RH  058%=      5-min Rain = 0
KLE1 110942Z 34026G32KT 09/01 A2956 RMK A01 T00900013  RH  058%=      5-min Rain = 0
KLE1 110943Z 34027G34KT 09/01 A2957 RMK A01 T00890012  RH  059%=      5-min Rain = 0
KLE1 110944Z 34031G38KT 09/01 A2957 RMK A01 T00890012  RH  059%=      5-min Rain = 0
KLE1 110945Z 33036G41KT 09/01 A2957 RMK A01 T00870010  RH  058%=      5-min Rain = 0
KLE1 110946Z 34031G39KT 09/01 A2957 RMK A01 T00860009  RH  059%=      5-min Rain = 0
KLE1 110947Z 35032G37KT 09/01 A2957 RMK A01 T00850009  RH  059%=      5-min Rain = 0
KLE1 110948Z 34028G35KT 08/01 A2958 RMK A01 T00830008  RH  059%=      5-min Rain = 0
KLE1 110949Z 35031G39KT 08/01 A2958 RMK A01 T00820007  RH  059%=      5-min Rain = 0
KLE1 110950Z 34037G46KT 08/01 A2958 RMK A01 T00800005  RH  059%=      5-min Rain = 0
KLE1 110951Z 34036G42KT 08/01 A2958 RMK A01 T00790005  RH  060%=      5-min Rain = 0
KLE1 110952Z 34038G45KT 08/01 A2958 RMK A01 T00780005  RH  060%=      5-min Rain = 0
KLE1 110953Z 34038G46KT 08/00 A2958 RMK A01 T00780004  RH  060%=      5-min Rain = 0
KLE1 110954Z 34040KT 08/00 A2958 RMK A01 T00770003  RH  060%=      5-min Rain = 0
KLE1 110955Z 34038KT 08/00 A2958 RMK A01 T00770003  RH  059%=      5-min Rain = 0
KLE1 110956Z 34040G46KT 08/00 A2958 RMK A01 T00760002  RH  059%=      5-min Rain = 0
KLE1 110957Z 34042G50KT 08/00 A2958 RMK A01 T00760002  RH  059%=      5-min Rain = 0
KLE1 110958Z 35040G50KT 08/00 A2958 RMK A01 T00760002  RH  059%=      5-min Rain = 0
KLE1 110959Z 35034G45KT 08/00 A2958 RMK A01 T00750002  RH  060%=      5-min Rain = 0
KLE1 111000Z 34031G40KT 08/00 A2958 RMK A01 T00750002  RH  060%=      5-min Rain = 0
KLE1 111001Z 34030G37KT 07/00 A2958 RMK A01 T00740001  RH  060%=      5-min Rain = 0
KLE1 111002Z 33034G39KT 07/00 A2958 RMK A01 T00740001  RH  060%=      5-min Rain = 0
KLE1 111003Z 34036G43KT 07/00 A2959 RMK A01 T00740001  RH  060%=      5-min Rain = 0
KLE1 111004Z 34038G43KT 07/00 A2959 RMK A01 T00740001  RH  060%=      5-min Rain = 0
KLE1 111005Z 34032G39KT 07/00 A2959 RMK A01 T00740001  RH  060%=      5-min Rain = 0
KLE1 111006Z 34030KT 07/00 A296 RMK A01 T00730001  RH  060%=      5-min Rain = 0
KLE1 111007Z 34028KT 07/00 A296 RMK A01 T00730001  RH  060%=      5-min Rain = 0
KLE1 111008Z 34028G34KT 07/00 A296 RMK A01 T00730001  RH  060%=      5-min Rain = 0
KLE1 111009Z 34032G37KT 07/00 A296 RMK A01 T00730001  RH  060%=      5-min Rain = 0
KLE1 111010Z 34031G38KT 07/00 A2961 RMK A01 T00720001  RH  061%=      5-min Rain = 0
KLE1 111011Z 34025G30KT 07/00 A2961 RMK A01 T00720001  RH  060%=      5-min Rain = 0
KLE1 111012Z 33029G37KT 07/00 A2961 RMK A01 T00720001  RH  060%=      5-min Rain = 0
KLE1 111013Z 33032G39KT 07/M00 A2962 RMK A01 T00711001  RH  060%=      5-min Rain = 0
KLE1 111014Z 34033G39KT 07/M00 A2962 RMK A01 T00701002  RH  060%=      5-min Rain = 0
KLE1 111015Z 33032G43KT 07/M00 A2962 RMK A01 T00691003  RH  060%=      5-min Rain = 0
KLE1 111016Z 34040G46KT 07/M00 A2962 RMK A01 T00681004  RH  060%=      5-min Rain = 0
KLE1 111017Z 34032G41KT 07/M00 A2963 RMK A01 T00681004  RH  060%=      5-min Rain = 0
KLE1 111018Z 34031KT 07/M01 A2963 RMK A01 T00671005  RH  060%=      5-min Rain = 0
KLE1 111019Z 34031G40KT 07/M01 A2963 RMK A01 T00661005  RH  060%=      5-min Rain = 0
KLE1 111020Z 34034G39KT 07/M01 A2963 RMK A01 T00661005  RH  061%=      5-min Rain = 0
KLE1 111021Z 34034G39KT 07/M01 A2963 RMK A01 T00661005  RH  061%=      5-min Rain = 0
KLE1 111022Z 34029G35KT 07/M01 A2964 RMK A01 T00651005  RH  061%=      5-min Rain = 0
KLE1 111023Z 34026KT 07/M01 A2964 RMK A01 T00651005  RH  061%=      5-min Rain = 0
KLE1 111024Z 33025KT 06/M01 A2964 RMK A01 T00641005  RH  061%=      5-min Rain = 0
KLE1 111025Z 33026G34KT 06/M01 A2964 RMK A01 T00641005  RH  061%=      5-min Rain = 0
KLE1 111026Z 33025KT 06/M01 A2964 RMK A01 T00631005  RH  062%=      5-min Rain = 0
KLE1 111027Z 34027G34KT 06/M01 A2965 RMK A01 T00631005  RH  062%=      5-min Rain = 0
KLE1 111028Z 33023G28KT 06/M01 A2965 RMK A01 T00621005  RH  062%=      5-min Rain = 0
KLE1 111029Z 33026G37KT 06/M01 A2965 RMK A01 T00621006  RH  062%=      5-min Rain = 0
KLE1 111030Z 33028G33KT 06/M01 A2965 RMK A01 T00611007  RH  062%=      5-min Rain = 0
KLE1 111031Z 34029KT 06/M01 A2965 RMK A01 T00601009  RH  062%=      5-min Rain = 0
KLE1 111032Z 34027G33KT 06/M01 A2966 RMK A01 T00581010  RH  062%=      5-min Rain = 0
KLE1 111033Z 33029KT 06/M01 A2966 RMK A01 T00571010  RH  062%=      5-min Rain = 0
KLE1 111034Z 34028G37KT 06/M01 A2966 RMK A01 T00571011  RH  062%=      5-min Rain = 0
KLE1 111035Z 33028KT 06/M01 A2966 RMK A01 T00561011  RH  062%=      5-min Rain = 0
KLE1 111036Z 33025KT 06/M01 A2966 RMK A01 T00551012  RH  062%=      5-min Rain = 0
KLE1 111037Z 33024G30KT 05/M01 A2966 RMK A01 T00541013  RH  062%=      5-min Rain = 0
KLE1 111038Z 34023G29KT 05/M01 A2967 RMK A01 T00541014  RH  062%=      5-min Rain = 0
KLE1 111039Z 33023G28KT 05/M01 A2967 RMK A01 T00531014  RH  062%=      5-min Rain = 0
KLE1 111040Z 33026G32KT 05/M02 A2967 RMK A01 T00521016  RH  061%=      5-min Rain = 0
KLE1 111041Z 33024G30KT 05/M02 A2967 RMK A01 T00511018  RH  061%=      5-min Rain = 0
KLE1 111042Z 33026KT 05/M02 A2967 RMK A01 T00501018  RH  061%=      5-min Rain = 0
KLE1 111043Z 33028G34KT 05/M02 A2967 RMK A01 T00501019  RH  061%=      5-min Rain = 0
KLE1 111044Z 34027KT 05/M02 A2967 RMK A01 T00501019  RH  061%=      5-min Rain = 0
KLE1 111045Z 33021G26KT 05/M02 A2967 RMK A01 T00491020  RH  061%=      5-min Rain = 0
KLE1 111046Z 34025G30KT 05/M02 A2967 RMK A01 T00481020  RH  061%=      5-min Rain = 0
KLE1 111047Z 33029G35KT 05/M02 A2968 RMK A01 T00471021  RH  061%=      5-min Rain = 0
KLE1 111048Z 33027KT 05/M02 A2968 RMK A01 T00471022  RH  061%=      5-min Rain = 0
KLE1 111049Z 33024KT 05/M02 A2968 RMK A01 T00461023  RH  061%=      5-min Rain = 0
KLE1 111050Z 33026G32KT 05/M02 A2968 RMK A01 T00451024  RH  061%=      5-min Rain = 0
KLE1 111051Z 33027KT 04/M03 A2968 RMK A01 T00441025  RH  061%=      5-min Rain = 0
KLE1 111052Z 33025KT 04/M03 A2968 RMK A01 T00431025  RH  061%=      5-min Rain = 0
KLE1 111053Z 33028G33KT 04/M03 A2968 RMK A01 T00431026  RH  061%=      5-min Rain = 0
KLE1 111054Z 34025G30KT 04/M03 A2968 RMK A01 T00431026  RH  061%=      5-min Rain = 0
KLE1 111055Z 34027G32KT 04/M03 A2968 RMK A01 T00421026  RH  061%=      5-min Rain = 0
KLE1 111056Z 34033G38KT 04/M03 A2967 RMK A01 T00421026  RH  061%=      5-min Rain = 0
KLE1 111057Z 35033G40KT 04/M03 A2968 RMK A01 T00411027  RH  061%=      5-min Rain = 0
KLE1 111058Z 34031G40KT 04/M03 A2968 RMK A01 T00411027  RH  061%=      5-min Rain = 0
KLE1 111059Z 34031G37KT 04/M03 A2968 RMK A01 T00411027  RH  061%=      5-min Rain = 0
KLE1 111100Z 33027KT 04/M03 A2968 RMK A01 T00401027  RH  061%=      5-min Rain = 0
KLE1 111101Z 34027G32KT 04/M03 A2968 RMK A01 T00401028  RH  062%=      5-min Rain = 0
KLE1 111102Z 34028G36KT 04/M03 A2969 RMK A01 T00391027  RH  062%=      5-min Rain = 0
KLE1 111103Z 34023KT 04/M03 A2969 RMK A01 T00391027  RH  062%=      5-min Rain = 0
KLE1 111104Z 34029KT 04/M03 A2969 RMK A01 T00391027  RH  062%=      5-min Rain = 0
KLE1 111105Z 33031KT 04/M03 A2969 RMK A01 T00391026  RH  062%=      5-min Rain = 0
KLE1 111106Z 33028G34KT 04/M03 A297 RMK A01 T00391026  RH  063%=      5-min Rain = 0
KLE1 111107Z 33026G31KT 04/M03 A297 RMK A01 T00391026  RH  062%=      5-min Rain = 0
KLE1 111108Z 32022KT 04/M03 A297 RMK A01 T00391026  RH  063%=      5-min Rain = 0
KLE1 111109Z 33026G32KT 04/M03 A297 RMK A01 T00391026  RH  063%=      5-min Rain = 0
KLE1 111110Z 33022G27KT 04/M03 A2971 RMK A01 T00391025  RH  063%=      5-min Rain = 0
KLE1 111111Z 34030G37KT 04/M03 A2971 RMK A01 T00391025  RH  063%=      5-min Rain = 0
KLE1 111112Z 33027G33KT 04/M02 A2971 RMK A01 T00391024  RH  063%=      5-min Rain = 0
KLE1 111113Z 32021KT 04/M02 A2971 RMK A01 T00391024  RH  063%=      5-min Rain = 0
KLE1 111114Z 33026G34KT 04/M02 A2971 RMK A01 T00391024  RH  063%=      5-min Rain = 0
KLE1 111115Z 33028KT 04/M02 A2972 RMK A01 T00391024  RH  064%=      5-min Rain = 0
KLE1 111116Z 33023G28KT 04/M02 A2972 RMK A01 T00391023  RH  064%=      5-min Rain = 0
KLE1 111117Z 32023G28KT 04/M02 A2972 RMK A01 T00391023  RH  064%=      5-min Rain = 0
KLE1 111118Z 32024G29KT 04/M02 A2972 RMK A01 T00391022  RH  064%=      5-min Rain = 0
KLE1 111119Z 32024G29KT 04/M02 A2972 RMK A01 T00391022  RH  064%=      5-min Rain = 0
KLE1 111120Z 32022G29KT 04/M02 A2972 RMK A01 T00391022  RH  064%=      5-min Rain = 0
KLE1 111121Z 32021G28KT 04/M02 A2972 RMK A01 T00381023  RH  064%=      5-min Rain = 0
KLE1 111122Z 32020KT 04/M02 A2973 RMK A01 T00381023  RH  065%=      5-min Rain = 0
KLE1 111123Z 32020G25KT 04/M02 A2973 RMK A01 T00371024  RH  065%=      5-min Rain = 0
KLE1 111124Z 32018G23KT 04/M03 A2973 RMK A01 T00351025  RH  065%=      5-min Rain = 0
KLE1 111125Z 32024G30KT 03/M03 A2973 RMK A01 T00341026  RH  065%=      5-min Rain = 0
KLE1 111126Z 33029G35KT 03/M03 A2973 RMK A01 T00331027  RH  065%=      5-min Rain = 0
KLE1 111127Z 32031KT 03/M03 A2973 RMK A01 T00321027  RH  065%=      5-min Rain = 0
KLE1 111128Z 32025G32KT 03/M03 A2974 RMK A01 T00311028  RH  065%=      5-min Rain = 0
KLE1 111129Z 33030KT 03/M03 A2974 RMK A01 T00301028  RH  066%=      5-min Rain = 0
KLE1 111130Z 33028KT 03/M03 A2974 RMK A01 T00291028  RH  066%=      5-min Rain = 0
KLE1 111131Z 33026G36KT 03/M03 A2974 RMK A01 T00281029  RH  066%=      5-min Rain = 0
KLE1 111132Z 33026G33KT 03/M03 A2974 RMK A01 T00281029  RH  066%=      5-min Rain = 0
KLE1 111133Z 33025G32KT 03/M03 A2975 RMK A01 T00271030  RH  066%=      5-min Rain = 0
KLE1 111134Z 35023KT 03/M03 A2975 RMK A01 T00271030  RH  066%=      5-min Rain = 0
KLE1 111135Z 33016G25KT 03/M03 A2975 RMK A01 T00261030  RH  066%=      5-min Rain = 0
KLE1 111136Z 33020G25KT 03/M03 A2975 RMK A01 T00261030  RH  067%=      5-min Rain = 0
KLE1 111137Z 33019G24KT 03/M03 A2975 RMK A01 T00251030  RH  067%=      5-min Rain = 0
KLE1 111138Z 33018G24KT 03/M03 A2976 RMK A01 T00251030  RH  067%=      5-min Rain = 0
KLE1 111139Z 32018KT 03/M03 A2976 RMK A01 T00251030  RH  067%=      5-min Rain = 0
KLE1 111140Z 32019KT 02/M03 A2976 RMK A01 T00241030  RH  067%=      5-min Rain = 0
KLE1 111141Z 32024G29KT 02/M03 A2976 RMK A01 T00231031  RH  067%=      5-min Rain = 0
KLE1 111142Z 32022KT 02/M03 A2976 RMK A01 T00231032  RH  067%=      5-min Rain = 0
KLE1 111143Z 32025G32KT 02/M03 A2976 RMK A01 T00221033  RH  067%=      5-min Rain = 0
KLE1 111144Z 33026KT 02/M04 A2977 RMK A01 T00211035  RH  066%=      5-min Rain = 0
KLE1 111145Z 33028KT 02/M04 A2977 RMK A01 T00211036  RH  066%=      5-min Rain = 0
KLE1 111146Z 33023KT 02/M04 A2977 RMK A01 T00201038  RH  066%=      5-min Rain = 0
KLE1 111147Z 34018G24KT 02/M04 A2977 RMK A01 T00191038  RH  066%=      5-min Rain = 0
KLE1 111148Z 32012KT 02/M04 A2978 RMK A01 T00181039  RH  066%=      5-min Rain = 0
KLE1 111149Z 32012KT 02/M04 A2978 RMK A01 T00181038  RH  066%=      5-min Rain = 0
KLE1 111150Z 32014G21KT 02/M04 A2978 RMK A01 T00171039  RH  066%=      5-min Rain = 0
KLE1 111151Z 33023G31KT 02/M04 A2979 RMK A01 T00171040  RH  066%=      5-min Rain = 0
KLE1 111152Z 33025G32KT 02/M04 A2979 RMK A01 T00161041  RH  065%=      5-min Rain = 0
KLE1 111153Z 33020G25KT 02/M04 A2979 RMK A01 T00161042  RH  065%=      5-min Rain = 0
KLE1 111154Z 33020G28KT 02/M04 A2979 RMK A01 T00161043  RH  065%=      5-min Rain = 0
KLE1 111155Z 33019G25KT 02/M04 A298 RMK A01 T00151043  RH  065%=      5-min Rain = 0
KLE1 111156Z 33017KT 02/M04 A298 RMK A01 T00151044  RH  065%=      5-min Rain = 0
KLE1 111157Z 33015G21KT 02/M04 A298 RMK A01 T00151044  RH  065%=      5-min Rain = 0
KLE1 111158Z 33024G31KT 02/M04 A298 RMK A01 T00151044  RH  065%=      5-min Rain = 0
KLE1 111159Z 33022KT 02/M04 A298 RMK A01 T00151044  RH  065%=      5-min Rain = 0
KLE1 111200Z 34020KT 02/M04 A298 RMK A01 T00151044  RH  065%=      5-min Rain = 0
KLE1 111201Z 34019KT 02/M05 A298 RMK A01 T00151045  RH  065%=      5-min Rain = 0
KLE1 111202Z 34019KT 02/M04 A2981 RMK A01 T00151044  RH  065%=      5-min Rain = 0
KLE1 111203Z 33018G23KT 02/M04 A2981 RMK A01 T00151044  RH  065%=      5-min Rain = 0
KLE1 111204Z 33016KT 02/M04 A2981 RMK A01 T00151044  RH  065%=      5-min Rain = 0
KLE1 111205Z 34016KT 02/M04 A2981 RMK A01 T00151043  RH  065%=      5-min Rain = 0
KLE1 111206Z 32014KT 02/M04 A2981 RMK A01 T00151043  RH  065%=      5-min Rain = 0
KLE1 111207Z 32013KT 02/M04 A2981 RMK A01 T00151042  RH  066%=      5-min Rain = 0
KLE1 111208Z 30014KT 02/M04 A2981 RMK A01 T00151041  RH  066%=      5-min Rain = 0
KLE1 111209Z 31013G20KT 02/M04 A2981 RMK A01 T00161040  RH  066%=      5-min Rain = 0
KLE1 111210Z 32020KT 02/M04 A2981 RMK A01 T00161039  RH  067%=      5-min Rain = 0
KLE1 111211Z 33020KT 02/M04 A2981 RMK A01 T00161039  RH  067%=      5-min Rain = 0
KLE1 111212Z 32026G34KT 02/M04 A2981 RMK A01 T00151040  RH  067%=      5-min Rain = 0
KLE1 111213Z 33026G31KT 02/M04 A2981 RMK A01 T00161040  RH  066%=      5-min Rain = 0
KLE1 111214Z 33022G28KT 02/M04 A2981 RMK A01 T00151040  RH  066%=      5-min Rain = 0
KLE1 111215Z 33021KT 02/M04 A2982 RMK A01 T00151041  RH  066%=      5-min Rain = 0
KLE1 111216Z 33021KT 02/M04 A2982 RMK A01 T00151041  RH  066%=      5-min Rain = 0
KLE1 111217Z 33017KT 02/M04 A2982 RMK A01 T00151041  RH  066%=      5-min Rain = 0
KLE1 111218Z 33020G26KT 02/M04 A2982 RMK A01 T00151041  RH  066%=      5-min Rain = 0
KLE1 111219Z 32024KT 02/M04 A2982 RMK A01 T00151041  RH  066%=      5-min Rain = 0
KLE1 111220Z 32019G24KT 02/M04 A2982 RMK A01 T00151041  RH  067%=      5-min Rain = 0
KLE1 111221Z 31020G27KT 02/M04 A2982 RMK A01 T00151040  RH  067%=      5-min Rain = 0
KLE1 111222Z 32021KT 01/M04 A2983 RMK A01 T00141040  RH  067%=      5-min Rain = 0
KLE1 111223Z 33024KT 02/M04 A2983 RMK A01 T00151040  RH  067%=      5-min Rain = 0
KLE1 111224Z 33025KT 01/M04 A2983 RMK A01 T00141040  RH  067%=      5-min Rain = 0
KLE1 111225Z 32020KT 01/M04 A2983 RMK A01 T00141041  RH  067%=      5-min Rain = 0
KLE1 111226Z 32019KT 01/M04 A2983 RMK A01 T00141040  RH  067%=      5-min Rain = 0
KLE1 111227Z 33019KT 01/M04 A2983 RMK A01 T00141040  RH  067%=      5-min Rain = 0
KLE1 111228Z 31023KT 01/M04 A2983 RMK A01 T00141040  RH  067%=      5-min Rain = 0
KLE1 111229Z 32022KT 01/M04 A2983 RMK A01 T00131042  RH  067%=      5-min Rain = 0
KLE1 111230Z 32023G28KT 01/M04 A2984 RMK A01 T00121042  RH  067%=      5-min Rain = 0
KLE1 111231Z 33023KT 01/M04 A2984 RMK A01 T00121044  RH  067%=      5-min Rain = 0
KLE1 111232Z 33024G32KT 01/M05 A2984 RMK A01 T00111045  RH  066%=      5-min Rain = 0
KLE1 111233Z 33027G35KT 01/M05 A2984 RMK A01 T00111045  RH  066%=      5-min Rain = 0
KLE1 111234Z 33034KT 01/M05 A2984 RMK A01 T00101047  RH  065%=      5-min Rain = 0
KLE1 111235Z 34030G36KT 01/M05 A2984 RMK A01 T00091050  RH  064%=      5-min Rain = 0
KLE1 111236Z 35032G37KT 01/M05 A2984 RMK A01 T00091052  RH  064%=      5-min Rain = 0
KLE1 111237Z 35030KT 01/M05 A2985 RMK A01 T00071054  RH  064%=      5-min Rain = 0
KLE1 111238Z 35031G36KT 01/M05 A2985 RMK A01 T00071054  RH  064%=      5-min Rain = 0
KLE1 111239Z 35028G35KT 01/M06 A2985 RMK A01 T00061055  RH  064%=      5-min Rain = 0
KLE1 111240Z 34023G29KT 01/M06 A2985 RMK A01 T00061055  RH  064%=      5-min Rain = 0
KLE1 111241Z 34027G34KT 01/M05 A2986 RMK A01 T00061054  RH  064%=      5-min Rain = 0
KLE1 111242Z 34033KT 01/M05 A2985 RMK A01 T00061054  RH  064%=      5-min Rain = 0
KLE1 111243Z 35032KT 01/M05 A2985 RMK A01 T00061054  RH  064%=      5-min Rain = 0
KLE1 111244Z 34033G38KT 01/M06 A2986 RMK A01 T00051055  RH  064%=      5-min Rain = 0
KLE1 111245Z 34022G30KT 01/M06 A2986 RMK A01 T00051055  RH  064%=      5-min Rain = 0
KLE1 111246Z 34027G33KT 00/M06 A2986 RMK A01 T00041055  RH  064%=      5-min Rain = 0
KLE1 111247Z 34021G27KT 00/M06 A2986 RMK A01 T00041055  RH  065%=      5-min Rain = 0
KLE1 111248Z 33025KT 00/M06 A2986 RMK A01 T00031055  RH  065%=      5-min Rain = 0
KLE1 111249Z 33025KT 00/M05 A2986 RMK A01 T00031054  RH  065%=      5-min Rain = 0
KLE1 111250Z 33019G25KT 00/M05 A2986 RMK A01 T00031054  RH  065%=      5-min Rain = 0
KLE1 111251Z 33019G24KT 00/M06 A2986 RMK A01 T00031055  RH  065%=      5-min Rain = 0
KLE1 111252Z 33022G28KT 00/M05 A2986 RMK A01 T00031054  RH  065%=      5-min Rain = 0
KLE1 111253Z 33026KT 00/M05 A2986 RMK A01 T00031054  RH  066%=      5-min Rain = 0
KLE1 111254Z 33026KT 00/M05 A2986 RMK A01 T00041053  RH  066%=      5-min Rain = 0
KLE1 111255Z 34024G31KT 00/M05 A2987 RMK A01 T00041053  RH  066%=      5-min Rain = 0
KLE1 111256Z 33026KT 00/M05 A2987 RMK A01 T00041053  RH  066%=      5-min Rain = 0
KLE1 111257Z 34026KT 01/M05 A2987 RMK A01 T00051052  RH  066%=      5-min Rain = 0
KLE1 111258Z 33020G26KT 01/M05 A2987 RMK A01 T00051052  RH  066%=      5-min Rain = 0
KLE1 111259Z 33020KT 01/M05 A2987 RMK A01 T00051052  RH  066%=      5-min Rain = 0
KLE1 111300Z 33025KT 01/M05 A2987 RMK A01 T00051052  RH  066%=      5-min Rain = 0
KLE1 111301Z 33024G29KT 01/M05 A2987 RMK A01 T00051051  RH  066%=      5-min Rain = 0
KLE1 111302Z 34022KT 01/M05 A2987 RMK A01 T00051052  RH  066%=      5-min Rain = 0
KLE1 111303Z 33021KT 00/M05 A2987 RMK A01 T00041052  RH  066%=      5-min Rain = 0
KLE1 111304Z 33023KT 01/M05 A2987 RMK A01 T00051051  RH  066%=      5-min Rain = 0
KLE1 111305Z 33020G25KT 01/M05 A2987 RMK A01 T00051051  RH  066%=      5-min Rain = 0
KLE1 111306Z 33017KT 01/M05 A2987 RMK A01 T00051051  RH  066%=      5-min Rain = 0
KLE1 111307Z 33022KT 01/M05 A2988 RMK A01 T00051051  RH  066%=      5-min Rain = 0
KLE1 111308Z 33021KT 01/M05 A2988 RMK A01 T00051050  RH  067%=      5-min Rain = 0
KLE1 111309Z 32018KT 01/M05 A2988 RMK A01 T00051050  RH  067%=      5-min Rain = 0
KLE1 111310Z 32020G25KT 01/M05 A2988 RMK A01 T00051050  RH  067%=      5-min Rain = 0
KLE1 111311Z 33022G27KT 01/M05 A2988 RMK A01 T00051049  RH  067%=      5-min Rain = 0
KLE1 111312Z 33023G31KT 01/M05 A2989 RMK A01 T00061049  RH  067%=      5-min Rain = 0
KLE1 111313Z 32030G35KT 01/M05 A2989 RMK A01 T00071048  RH  067%=      5-min Rain = 0
KLE1 111314Z 32029G37KT 01/M05 A2989 RMK A01 T00071048  RH  067%=      5-min Rain = 0
KLE1 111315Z 32022KT 01/M05 A2989 RMK A01 T00081048  RH  066%=      5-min Rain = 0
KLE1 111316Z 33021G28KT 01/M05 A299 RMK A01 T00081048  RH  066%=      5-min Rain = 0
KLE1 111317Z 32023G29KT 01/M05 A299 RMK A01 T00081048  RH  066%=      5-min Rain = 0
KLE1 111318Z 32016G21KT 01/M05 A299 RMK A01 T00081049  RH  066%=      5-min Rain = 0
KLE1 111319Z 31018G23KT 01/M05 A299 RMK A01 T00081050  RH  065%=      5-min Rain = 0
KLE1 111320Z 32022KT 01/M05 A2991 RMK A01 T00071053  RH  064%=      5-min Rain = 0
KLE1 111321Z 33022G27KT 01/M06 A299 RMK A01 T00051056  RH  064%=      5-min Rain = 0
KLE1 111322Z 32024G29KT 00/M06 A2991 RMK A01 T00031058  RH  064%=      5-min Rain = 0
KLE1 111323Z 32027KT 00/M06 A2991 RMK A01 T00011060  RH  063%=      5-min Rain = 0
KLE1 111324Z 33026KT 00/06 A2991 RMK A01 T00000-61  RH  064%=      5-min Rain = 0
KLE1 111325Z 32025G31KT M00/M06 A2991 RMK A01 T10011061  RH  064%=      5-min Rain = 0
KLE1 111326Z 33027KT M00/M06 A2992 RMK A01 T10011063  RH  063%=      5-min Rain = 0
KLE1 111327Z 33026KT M00/M06 A2992 RMK A01 T10021063  RH  063%=      5-min Rain = 0
KLE1 111328Z 33024G31KT M00/M06 A2992 RMK A01 T10021064  RH  063%=      5-min Rain = 0
KLE1 111329Z 33028G35KT M00/M07 A2992 RMK A01 T10031065  RH  063%=      5-min Rain = 0
KLE1 111330Z 34030KT M00/M07 A2992 RMK A01 T10031066  RH  063%=      5-min Rain = 0
KLE1 111331Z 33026KT M00/M07 A2993 RMK A01 T10041067  RH  063%=      5-min Rain = 0
KLE1 111332Z 33023G29KT M00/M07 A2993 RMK A01 T10041067  RH  063%=      5-min Rain = 0
KLE1 111333Z 34027G33KT M00/M07 A2993 RMK A01 T10041067  RH  063%=      5-min Rain = 0
KLE1 111334Z 34022G27KT M00/M07 A2993 RMK A01 T10041067  RH  063%=      5-min Rain = 0
KLE1 111335Z 34025G31KT M00/M07 A2993 RMK A01 T10041067  RH  063%=      5-min Rain = 0
KLE1 111336Z 33022G27KT M00/M07 A2993 RMK A01 T10041067  RH  063%=      5-min Rain = 0
KLE1 111337Z 34028G33KT M01/M07 A2993 RMK A01 T10051067  RH  063%=      5-min Rain = 0
KLE1 111338Z 33025G30KT M00/M07 A2993 RMK A01 T10041067  RH  063%=      5-min Rain = 0
KLE1 111339Z 34029KT M01/M07 A2993 RMK A01 T10051068  RH  063%=      5-min Rain = 0
KLE1 111340Z 34026KT M01/M07 A2993 RMK A01 T10051068  RH  063%=      5-min Rain = 0
KLE1 111341Z 34026G31KT M01/M07 A2993 RMK A01 T10061068  RH  063%=      5-min Rain = 0
KLE1 111342Z 34027KT M01/M07 A2993 RMK A01 T10061068  RH  063%=      5-min Rain = 0
KLE1 111343Z 33022G28KT M01/M07 A2993 RMK A01 T10061068  RH  063%=      5-min Rain = 0
KLE1 111344Z 34023KT M01/M07 A2993 RMK A01 T10071068  RH  063%=      5-min Rain = 0
KLE1 111345Z 33020G25KT M01/M07 A2993 RMK A01 T10071068  RH  063%=      5-min Rain = 0
KLE1 111346Z 33019G24KT M01/M07 A2993 RMK A01 T10071068  RH  063%=      5-min Rain = 0
KLE1 111347Z 34019G25KT M01/M07 A2993 RMK A01 T10081068  RH  064%=      5-min Rain = 0
KLE1 111348Z 34023KT M01/M07 A2993 RMK A01 T10081068  RH  064%=      5-min Rain = 0
KLE1 111349Z 34019KT M01/M07 A2993 RMK A01 T10081068  RH  064%=      5-min Rain = 0
KLE1 111350Z 34024G30KT M01/M07 A2993 RMK A01 T10091068  RH  064%=      5-min Rain = 0
KLE1 111351Z 34025KT M01/M07 A2993 RMK A01 T10091068  RH  064%=      5-min Rain = 0
KLE1 111352Z 33022G27KT M01/M07 A2993 RMK A01 T10081068  RH  064%=      5-min Rain = 0
KLE1 111353Z 34021KT M01/M07 A2993 RMK A01 T10091068  RH  064%=      5-min Rain = 0
KLE1 111354Z 34022KT M01/M07 A2993 RMK A01 T10091068  RH  064%=      5-min Rain = 0
KLE1 111355Z 34020KT M01/M07 A2994 RMK A01 T10091068  RH  064%=      5-min Rain = 0
KLE1 111356Z 34020KT M01/M07 A2994 RMK A01 T10091068  RH  064%=      5-min Rain = 0
KLE1 111357Z 34018G23KT M01/M07 A2994 RMK A01 T10091068  RH  064%=      5-min Rain = 0
KLE1 111358Z 34023G30KT M01/M07 A2994 RMK A01 T10091068  RH  064%=      5-min Rain = 0
KLE1 111359Z 34022G27KT M01/M07 A2994 RMK A01 T10091068  RH  065%=      5-min Rain = 0
KLE1 111400Z 34023KT M01/M07 A2994 RMK A01 T10091067  RH  065%=      5-min Rain = 0
KLE1 111401Z 34022G29KT M01/M07 A2994 RMK A01 T10091067  RH  065%=      5-min Rain = 0
KLE1 111402Z 34020G25KT M01/M07 A2994 RMK A01 T10091067  RH  065%=      5-min Rain = 0
KLE1 111403Z 34025G34KT M01/M07 A2994 RMK A01 T10091067  RH  065%=      5-min Rain = 0
KLE1 111404Z 33020G29KT M01/M07 A2994 RMK A01 T10081066  RH  065%=      5-min Rain = 0
KLE1 111405Z 34024KT M01/M07 A2994 RMK A01 T10081066  RH  065%=      5-min Rain = 0
KLE1 111406Z 34022KT M01/M07 A2994 RMK A01 T10081065  RH  065%=      5-min Rain = 0
KLE1 111407Z 33021KT M01/M07 A2994 RMK A01 T10081065  RH  065%=      5-min Rain = 0
KLE1 111408Z 33018G24KT M01/M07 A2995 RMK A01 T10081065  RH  065%=      5-min Rain = 0
KLE1 111409Z 33021G26KT M01/M07 A2995 RMK A01 T10081065  RH  065%=      5-min Rain = 0
KLE1 111410Z 33021G29KT M01/M07 A2995 RMK A01 T10081065  RH  065%=      5-min Rain = 0
KLE1 111411Z 33027G33KT M01/M07 A2995 RMK A01 T10081065  RH  065%=      5-min Rain = 0
KLE1 111412Z 33024KT M01/M07 A2995 RMK A01 T10071065  RH  065%=      5-min Rain = 0
KLE1 111413Z 33021KT M01/M07 A2995 RMK A01 T10071065  RH  065%=      5-min Rain = 0
KLE1 111414Z 33023KT M01/M07 A2995 RMK A01 T10071065  RH  065%=      5-min Rain = 0
KLE1 111415Z 33023G28KT M01/M07 A2995 RMK A01 T10061065  RH  065%=      5-min Rain = 0
KLE1 111416Z 33019KT M01/M07 A2995 RMK A01 T10061066  RH  064%=      5-min Rain = 0
KLE1 111417Z 34019KT M01/M07 A2995 RMK A01 T10071066  RH  064%=      5-min Rain = 0
KLE1 111418Z 33020G27KT M01/M07 A2995 RMK A01 T10071066  RH  064%=      5-min Rain = 0
KLE1 111419Z 33023G30KT M01/M07 A2996 RMK A01 T10071067  RH  064%=      5-min Rain = 0
KLE1 111420Z 33027KT M01/M07 A2995 RMK A01 T10071068  RH  063%=      5-min Rain = 0
KLE1 111421Z 34026KT M01/M07 A2996 RMK A01 T10071069  RH  063%=      5-min Rain = 0
KLE1 111422Z 33026KT M01/M07 A2996 RMK A01 T10071069  RH  063%=      5-min Rain = 0
KLE1 111423Z 33023G33KT M01/M07 A2996 RMK A01 T10061069  RH  062%=      5-min Rain = 0
KLE1 111424Z 33027G32KT M01/M07 A2995 RMK A01 T10061070  RH  062%=      5-min Rain = 0
KLE1 111425Z 33028G33KT M01/M07 A2995 RMK A01 T10071071  RH  062%=      5-min Rain = 0
KLE1 111426Z 34029KT M01/M07 A2996 RMK A01 T10061071  RH  062%=      5-min Rain = 0
KLE1 111427Z 34028G34KT M01/M07 A2996 RMK A01 T10071072  RH  061%=      5-min Rain = 0
KLE1 111428Z 34028G33KT M01/M07 A2996 RMK A01 T10061072  RH  061%=      5-min Rain = 0
KLE1 111429Z 34029KT M01/M07 A2996 RMK A01 T10051072  RH  060%=      5-min Rain = 0
KLE1 111430Z 33031G36KT M01/M07 A2996 RMK A01 T10051073  RH  060%=      5-min Rain = 0
KLE1 111431Z 34030G35KT M01/M07 A2996 RMK A01 T10051074  RH  060%=      5-min Rain = 0
KLE1 111432Z 33029KT M00/M07 A2996 RMK A01 T10041074  RH  059%=      5-min Rain = 0
KLE1 111433Z 33026G31KT M00/M07 A2996 RMK A01 T10041074  RH  059%=      5-min Rain = 0
KLE1 111434Z 34026KT M00/M08 A2996 RMK A01 T10041075  RH  059%=      5-min Rain = 0
KLE1 111435Z 34029G34KT M00/M08 A2996 RMK A01 T10041075  RH  059%=      5-min Rain = 0
KLE1 111436Z 34029KT M00/M08 A2996 RMK A01 T10041075  RH  059%=      5-min Rain = 0
KLE1 111437Z 34031G38KT M00/M08 A2996 RMK A01 T10041076  RH  058%=      5-min Rain = 0
KLE1 111438Z 34029G36KT M00/M08 A2996 RMK A01 T10041077  RH  058%=      5-min Rain = 0
KLE1 111439Z 33026G35KT M00/M08 A2996 RMK A01 T10041077  RH  058%=      5-min Rain = 0
KLE1 111440Z 34027G32KT M00/M08 A2997 RMK A01 T10041077  RH  058%=      5-min Rain = 0
KLE1 111441Z 34025KT M00/M08 A2997 RMK A01 T10041078  RH  057%=      5-min Rain = 0
KLE1 111442Z 34028G33KT M00/M08 A2997 RMK A01 T10031077  RH  057%=      5-min Rain = 0
KLE1 111443Z 34029G38KT M00/M08 A2997 RMK A01 T10031079  RH  057%=      5-min Rain = 0
KLE1 111444Z 34026G34KT M00/M08 A2997 RMK A01 T10031079  RH  057%=      5-min Rain = 0
KLE1 111445Z 34032G38KT M00/M08 A2997 RMK A01 T10031079  RH  057%=      5-min Rain = 0
KLE1 111446Z 35025G31KT M00/M08 A2997 RMK A01 T10031079  RH  056%=      5-min Rain = 0
KLE1 111447Z 34021KT M00/M08 A2997 RMK A01 T10021079  RH  056%=      5-min Rain = 0
KLE1 111448Z 34024G31KT M00/M08 A2997 RMK A01 T10021078  RH  056%=      5-min Rain = 0
KLE1 111449Z 34031G37KT M00/M08 A2997 RMK A01 T10011079  RH  056%=      5-min Rain = 0
KLE1 111450Z 34027KT M00/M08 A2997 RMK A01 T10011080  RH  056%=      5-min Rain = 0
KLE1 111451Z 34028KT M00/M08 A2997 RMK A01 T10011080  RH  056%=      5-min Rain = 0
KLE1 111452Z 34023KT M00/M08 A2997 RMK A01 T10011080  RH  055%=      5-min Rain = 0
KLE1 111453Z 33027G33KT 00/08 A2997 RMK A01 T00-00-79  RH  055%=      5-min Rain = 0
KLE1 111454Z 34025KT 00/M08 A2997 RMK A01 T00011079  RH  055%=      5-min Rain = 0
KLE1 111455Z 34026G31KT 00/M08 A2998 RMK A01 T00011080  RH  055%=      5-min Rain = 0
KLE1 111456Z 34026KT 00/M08 A2998 RMK A01 T00011080  RH  055%=      5-min Rain = 0
KLE1 111457Z 33022KT 00/M08 A2998 RMK A01 T00011080  RH  054%=      5-min Rain = 0
KLE1 111458Z 33026KT 00/M08 A2998 RMK A01 T00011080  RH  054%=      5-min Rain = 0
KLE1 111459Z 34026KT 00/M08 A2998 RMK A01 T00011081  RH  054%=      5-min Rain = 0
KLE1 111500Z 34026G31KT 00/M08 A2998 RMK A01 T00011081  RH  054%=      5-min Rain = 0
KLE1 111501Z 34027G32KT 00/M08 A2998 RMK A01 T00011081  RH  054%=      5-min Rain = 0
KLE1 111502Z 35028KT 00/08 A2998 RMK A01 T00000-82  RH  054%=      5-min Rain = 0
KLE1 111503Z 34029KT 00/M08 A2998 RMK A01 T00011082  RH  054%=      5-min Rain = 0
KLE1 111504Z 34029G34KT 00/M08 A2998 RMK A01 T00021082  RH  053%=      5-min Rain = 0
KLE1 111505Z 34027KT 00/M08 A2999 RMK A01 T00021082  RH  053%=      5-min Rain = 0
KLE1 111506Z 34027G34KT 00/M08 A2999 RMK A01 T00031083  RH  053%=      5-min Rain = 0
KLE1 111507Z 34025G30KT 00/M08 A2999 RMK A01 T00031083  RH  052%=      5-min Rain = 0
KLE1 111508Z 35026G31KT 01/M08 A2999 RMK A01 T00051082  RH  052%=      5-min Rain = 0
KLE1 111509Z 35023G28KT 01/M08 A2999 RMK A01 T00051082  RH  052%=      5-min Rain = 0
KLE1 111510Z 35026KT 01/M08 A2999 RMK A01 T00061082  RH  052%=      5-min Rain = 0
KLE1 111511Z 34021G27KT 01/M08 A2999 RMK A01 T00051083  RH  052%=      5-min Rain = 0
KLE1 111512Z 34024KT 01/M08 A30 RMK A01 T00051083  RH  052%=      5-min Rain = 0
KLE1 111513Z 35025KT 01/M08 A30 RMK A01 T00051083  RH  051%=      5-min Rain = 0
KLE1 111514Z 35023KT 01/M08 A30 RMK A01 T00051083  RH  051%=      5-min Rain = 0
KLE1 111515Z 34019G24KT 01/M08 A30 RMK A01 T00061083  RH  051%=      5-min Rain = 0
KLE1 111516Z 34023KT 01/M08 A30 RMK A01 T00061083  RH  051%=      5-min Rain = 0
KLE1 111517Z 34024KT 01/M08 A30 RMK A01 T00071083  RH  051%=      5-min Rain = 0
KLE1 111518Z 34030G35KT 01/M08 A30 RMK A01 T00071084  RH  051%=      5-min Rain = 0
KLE1 111519Z 34027KT 01/M08 A3001 RMK A01 T00071084  RH  050%=      5-min Rain = 0
KLE1 111520Z 34024KT 01/M08 A3001 RMK A01 T00071084  RH  050%=      5-min Rain = 0
KLE1 111521Z 34028G36KT 01/M08 A3001 RMK A01 T00071084  RH  050%=      5-min Rain = 0
KLE1 111522Z 34028G35KT 01/M09 A3001 RMK A01 T00071085  RH  050%=      5-min Rain = 0
KLE1 111523Z 35029KT 01/M09 A3002 RMK A01 T00061085  RH  051%=      5-min Rain = 0
KLE1 111524Z 35027KT 01/M09 A3002 RMK A01 T00051085  RH  051%=      5-min Rain = 0
KLE1 111525Z 35025KT 00/M09 A3002 RMK A01 T00041086  RH  051%=      5-min Rain = 0
KLE1 111526Z 34022G27KT 00/M09 A3002 RMK A01 T00041085  RH  051%=      5-min Rain = 0
KLE1 111527Z 34021G26KT 01/M09 A3003 RMK A01 T00051085  RH  051%=      5-min Rain = 0
KLE1 111528Z 34022KT 01/M09 A3003 RMK A01 T00061085  RH  051%=      5-min Rain = 0
KLE1 111529Z 34030G39KT 01/M09 A3003 RMK A01 T00061085  RH  051%=      5-min Rain = 0
KLE1 111530Z 34028G35KT 01/M09 A3003 RMK A01 T00061086  RH  050%=      5-min Rain = 0
KLE1 111531Z 34027G32KT 01/M09 A3003 RMK A01 T00061086  RH  050%=      5-min Rain = 0
KLE1 111532Z 34028G34KT 01/M09 A3003 RMK A01 T00061086  RH  050%=      5-min Rain = 0
KLE1 111533Z 34022G28KT 01/M09 A3003 RMK A01 T00051087  RH  050%=      5-min Rain = 0
KLE1 111534Z 34023G28KT 01/M09 A3004 RMK A01 T00061086  RH  050%=      5-min Rain = 0
KLE1 111535Z 35022G29KT 01/M09 A3004 RMK A01 T00071086  RH  050%=      5-min Rain = 0
KLE1 111536Z 34023KT 01/M09 A3004 RMK A01 T00071087  RH  049%=      5-min Rain = 0
KLE1 111537Z 33021G28KT 01/M09 A3004 RMK A01 T00081086  RH  049%=      5-min Rain = 0
KLE1 111538Z 34027G32KT 01/M09 A3004 RMK A01 T00091086  RH  049%=      5-min Rain = 0
KLE1 111539Z 34029KT 01/M09 A3004 RMK A01 T00091087  RH  049%=      5-min Rain = 0
KLE1 111540Z 34028G33KT 01/M09 A3005 RMK A01 T00081088  RH  049%=      5-min Rain = 0
KLE1 111541Z 34025G33KT 01/M09 A3005 RMK A01 T00081088  RH  049%=      5-min Rain = 0
KLE1 111542Z 33020G25KT 01/M09 A3005 RMK A01 T00071089  RH  049%=      5-min Rain = 0
KLE1 111543Z 33021G26KT 01/M09 A3005 RMK A01 T00081088  RH  049%=      5-min Rain = 0
KLE1 111544Z 34024G29KT 01/M09 A3005 RMK A01 T00091088  RH  048%=      5-min Rain = 0
KLE1 111545Z 33022G28KT 01/M09 A3005 RMK A01 T00091089  RH  048%=      5-min Rain = 0
KLE1 111546Z 33024G29KT 01/M09 A3006 RMK A01 T00081089  RH  048%=      5-min Rain = 0
KLE1 111547Z 33021G27KT 01/M09 A3006 RMK A01 T00081089  RH  048%=      5-min Rain = 0
KLE1 111548Z 33027KT 01/M09 A3006 RMK A01 T00091088  RH  048%=      5-min Rain = 0
KLE1 111549Z 34025KT 01/M09 A3006 RMK A01 T00091089  RH  048%=      5-min Rain = 0
KLE1 111550Z 33023KT 01/M09 A3006 RMK A01 T00091090  RH  048%=      5-min Rain = 0
KLE1 111551Z 33019KT 01/M09 A3006 RMK A01 T00101089  RH  048%=      5-min Rain = 0
KLE1 111552Z 34019G24KT 01/M09 A3006 RMK A01 T00121087  RH  048%=      5-min Rain = 0
KLE1 111553Z 33022KT 01/M09 A3006 RMK A01 T00141087  RH  047%=      5-min Rain = 0
KLE1 111554Z 33020KT 01/M09 A3006 RMK A01 T00141088  RH  047%=      5-min Rain = 0
KLE1 111555Z 33024KT 01/M09 A3006 RMK A01 T00141088  RH  047%=      5-min Rain = 0
KLE1 111556Z 33026KT 02/M09 A3006 RMK A01 T00151088  RH  047%=      5-min Rain = 0
KLE1 111557Z 34026KT 02/M09 A3006 RMK A01 T00151088  RH  046%=      5-min Rain = 0
KLE1 111558Z 34024G30KT 02/M09 A3007 RMK A01 T00151088  RH  046%=      5-min Rain = 0
KLE1 111559Z 33029KT 02/M09 A3007 RMK A01 T00161088  RH  046%=      5-min Rain = 0
KLE1 111600Z 33030KT 02/M09 A3007 RMK A01 T00161089  RH  046%=      5-min Rain = 0
KLE1 111601Z 34027KT 02/M09 A3007 RMK A01 T00161090  RH  045%=      5-min Rain = 0
KLE1 111602Z 34028G33KT 02/M09 A3007 RMK A01 T00171090  RH  045%=      5-min Rain = 0
KLE1 111603Z 33026KT 02/M09 A3007 RMK A01 T00171090  RH  045%=      5-min Rain = 0
KLE1 111604Z 34028G34KT 02/M09 A3007 RMK A01 T00171090  RH  045%=      5-min Rain = 0
KLE1 111605Z 34024G29KT 02/M09 A3007 RMK A01 T00171091  RH  044%=      5-min Rain = 0
KLE1 111606Z 33030G35KT 02/M09 A3007 RMK A01 T00171091  RH  044%=      5-min Rain = 0
KLE1 111607Z 33029KT 02/M09 A3007 RMK A01 T00181092  RH  044%=      5-min Rain = 0
KLE1 111608Z 33029KT 02/M09 A3007 RMK A01 T00181093  RH  044%=      5-min Rain = 0
KLE1 111609Z 34027KT 02/M09 A3007 RMK A01 T00181093  RH  043%=      5-min Rain = 0
KLE1 111610Z 34030G35KT 02/M09 A3008 RMK A01 T00201092  RH  043%=      5-min Rain = 0
KLE1 111611Z 34026G31KT 02/M09 A3008 RMK A01 T00211092  RH  043%=      5-min Rain = 0
KLE1 111612Z 33026G31KT 02/M09 A3008 RMK A01 T00211093  RH  043%=      5-min Rain = 0
KLE1 111613Z 34025G30KT 02/M09 A3008 RMK A01 T00221093  RH  042%=      5-min Rain = 0
KLE1 111614Z 34027G33KT 02/M09 A3008 RMK A01 T00241092  RH  042%=      5-min Rain = 0
KLE1 111615Z 34027G32KT 03/M09 A3008 RMK A01 T00251093  RH  041%=      5-min Rain = 0
KLE1 111616Z 34026G32KT 03/M09 A3008 RMK A01 T00251093  RH  041%=      5-min Rain = 0
KLE1 111617Z 34023G28KT 03/M09 A3008 RMK A01 T00271093  RH  041%=      5-min Rain = 0
KLE1 111618Z 34027G32KT 03/M09 A3008 RMK A01 T00291092  RH  041%=      5-min Rain = 0
KLE1 111619Z 35027G35KT 03/M09 A3008 RMK A01 T00291093  RH  040%=      5-min Rain = 0
KLE1 111620Z 35028G33KT 03/M09 A3009 RMK A01 T00301094  RH  040%=      5-min Rain = 0
KLE1 111621Z 34025G31KT 03/M10 A3009 RMK A01 T00281096  RH  040%=      5-min Rain = 0
KLE1 111622Z 34022G27KT 03/M09 A3009 RMK A01 T00291093  RH  040%=      5-min Rain = 0
KLE1 111623Z 33024KT 03/M09 A3009 RMK A01 T00311093  RH  040%=      5-min Rain = 0
KLE1 111624Z 33025G31KT 03/M09 A3009 RMK A01 T00311093  RH  040%=      5-min Rain = 0
KLE1 111625Z 34026G31KT 03/M10 A3009 RMK A01 T00291095  RH  040%=      5-min Rain = 0
KLE1 111626Z 34027KT 03/M09 A3009 RMK A01 T00291094  RH  040%=      5-min Rain = 0
KLE1 111627Z 33026G33KT 03/M10 A3009 RMK A01 T00271095  RH  040%=      5-min Rain = 0
KLE1 111628Z 33024KT 03/M09 A3009 RMK A01 T00261094  RH  041%=      5-min Rain = 0
KLE1 111629Z 33022KT 03/M09 A301 RMK A01 T00261094  RH  041%=      5-min Rain = 0
KLE1 111630Z 33021KT 03/M09 A301 RMK A01 T00271093  RH  041%=      5-min Rain = 0
KLE1 111631Z 33027G32KT 03/M09 A301 RMK A01 T00281093  RH  041%=      5-min Rain = 0
KLE1 111632Z 33031G36KT 03/M09 A301 RMK A01 T00281094  RH  040%=      5-min Rain = 0
KLE1 111633Z 33029KT 03/M10 A301 RMK A01 T00251096  RH  040%=      5-min Rain = 0
KLE1 111634Z 33029KT 02/M10 A301 RMK A01 T00241096  RH  041%=      5-min Rain = 0
KLE1 111635Z 33025KT 02/M10 A301 RMK A01 T00241095  RH  041%=      5-min Rain = 0
KLE1 111636Z 33024KT 02/M10 A301 RMK A01 T00241095  RH  041%=      5-min Rain = 0
KLE1 111637Z 33025G31KT 03/M09 A301 RMK A01 T00251094  RH  041%=      5-min Rain = 0
KLE1 111638Z 33027KT 03/M09 A301 RMK A01 T00261094  RH  041%=      5-min Rain = 0
KLE1 111639Z 34022G28KT 03/M09 A301 RMK A01 T00251094  RH  041%=      5-min Rain = 0
KLE1 111640Z 35025G30KT 03/M09 A301 RMK A01 T00281092  RH  041%=      5-min Rain = 0
KLE1 111641Z 34019KT 03/M09 A301 RMK A01 T00291092  RH  041%=      5-min Rain = 0
KLE1 111642Z 33023KT 03/M09 A301 RMK A01 T00341089  RH  040%=      5-min Rain = 0
KLE1 111643Z 33025KT 03/M09 A301 RMK A01 T00321092  RH  040%=      5-min Rain = 0
KLE1 111644Z 33025G31KT 03/M09 A301 RMK A01 T00291092  RH  040%=      5-min Rain = 0
KLE1 111645Z 33025KT 03/M09 A301 RMK A01 T00291092  RH  041%=      5-min Rain = 0
KLE1 111646Z 33021G27KT 03/M09 A301 RMK A01 T00291091  RH  041%=      5-min Rain = 0
KLE1 111647Z 33025G31KT 03/M09 A301 RMK A01 T00301090  RH  041%=      5-min Rain = 0
KLE1 111648Z 33027G33KT 03/M09 A301 RMK A01 T00311091  RH  040%=      5-min Rain = 0
KLE1 111649Z 33032G37KT 03/M09 A301 RMK A01 T00301092  RH  040%=      5-min Rain = 0
KLE1 111650Z 33028KT 03/M09 A301 RMK A01 T00281094  RH  040%=      5-min Rain = 0
KLE1 111651Z 34029KT 03/M10 A301 RMK A01 T00271095  RH  040%=      5-min Rain = 0
KLE1 111652Z 34023G29KT 03/M10 A3011 RMK A01 T00251095  RH  041%=      5-min Rain = 0
KLE1 111653Z 34023KT 03/M09 A3011 RMK A01 T00261094  RH  041%=      5-min Rain = 0
KLE1 111654Z 34025KT 03/M09 A3011 RMK A01 T00271094  RH  041%=      5-min Rain = 0
KLE1 111655Z 33026G32KT 03/M09 A3011 RMK A01 T00271094  RH  040%=      5-min Rain = 0
KLE1 111656Z 33026G32KT 03/M10 A3011 RMK A01 T00261095  RH  040%=      5-min Rain = 0
KLE1 111657Z 33030KT 03/M10 A301 RMK A01 T00261096  RH  040%=      5-min Rain = 0
KLE1 111658Z 33029KT 02/M10 A301 RMK A01 T00241098  RH  040%=      5-min Rain = 0
KLE1 111659Z 33028G33KT 02/M10 A301 RMK A01 T00231097  RH  041%=      5-min Rain = 0
KLE1 111700Z 33030KT 02/M10 A301 RMK A01 T00241097  RH  041%=      5-min Rain = 0
KLE1 111701Z 33029KT 02/M10 A301 RMK A01 T00221098  RH  041%=      5-min Rain = 0
KLE1 111702Z 33029KT 02/M10 A301 RMK A01 T00221098  RH  041%=      5-min Rain = 0
KLE1 111703Z 33027KT 02/M10 A301 RMK A01 T00221098  RH  041%=      5-min Rain = 0
KLE1 111704Z 33027G33KT 02/M10 A301 RMK A01 T00211097  RH  041%=      5-min Rain = 0
KLE1 111705Z 33028KT 02/M10 A3011 RMK A01 T00211098  RH  041%=      5-min Rain = 0
KLE1 111706Z 34023KT 02/M10 A3011 RMK A01 T00221096  RH  041%=      5-min Rain = 0
KLE1 111707Z 34025KT 03/M09 A3011 RMK A01 T00261094  RH  041%=      5-min Rain = 0
KLE1 111708Z 33026KT 03/M09 A3011 RMK A01 T00291094  RH  040%=      5-min Rain = 0
KLE1 111709Z 34025G33KT 03/M10 A3011 RMK A01 T00301095  RH  039%=      5-min Rain = 0
KLE1 111710Z 34027G32KT 03/M10 A3011 RMK A01 T00321095  RH  039%=      5-min Rain = 0
KLE1 111711Z 34028G33KT 03/M10 A3011 RMK A01 T00321095  RH  039%=      5-min Rain = 0
KLE1 111712Z 33022KT 03/M09 A3011 RMK A01 T00331094  RH  039%=      5-min Rain = 0
KLE1 111713Z 33026G31KT 04/M09 A3011 RMK A01 T00381092  RH  038%=      5-min Rain = 0
KLE1 111714Z 34022G27KT 04/M10 A3011 RMK A01 T00371096  RH  037%=      5-min Rain = 0
KLE1 111715Z 33022G29KT 04/M09 A3012 RMK A01 T00381094  RH  037%=      5-min Rain = 0
KLE1 111716Z 33030G35KT 04/M10 A3012 RMK A01 T00401095  RH  037%=      5-min Rain = 0
KLE1 111717Z 33024G32KT 04/M10 A3012 RMK A01 T00371097  RH  037%=      5-min Rain = 0
KLE1 111718Z 33029KT 04/M10 A3012 RMK A01 T00381095  RH  037%=      5-min Rain = 0
KLE1 111719Z 33028KT 04/M10 A3012 RMK A01 T00391096  RH  037%=      5-min Rain = 0
KLE1 111720Z 33027G33KT 04/M10 A3012 RMK A01 T00371097  RH  037%=      5-min Rain = 0
KLE1 111721Z 33025G31KT 04/M10 A3012 RMK A01 T00381096  RH  037%=      5-min Rain = 0
KLE1 111722Z 33030KT 04/M10 A3012 RMK A01 T00401096  RH  036%=      5-min Rain = 0
KLE1 111723Z 33027G32KT 04/M10 A3012 RMK A01 T00381099  RH  036%=      5-min Rain = 0
KLE1 111724Z 33028KT 04/M10 A3012 RMK A01 T00391098  RH  036%=      5-min Rain = 0
KLE1 111725Z 34025G30KT 04/M10 A3012 RMK A01 T00391098  RH  036%=      5-min Rain = 0
KLE1 111726Z 34025G31KT 04/M10 A3012 RMK A01 T00411096  RH  036%=      5-min Rain = 0
KLE1 111727Z 34027G34KT 04/M10 A3012 RMK A01 T00431097  RH  035%=      5-min Rain = 0
KLE1 111728Z 33028G33KT 04/M10 A3012 RMK A01 T00421099  RH  035%=      5-min Rain = 0
KLE1 111729Z 34031KT 04/M10 A3012 RMK A01 T00421099  RH  035%=      5-min Rain = 0
KLE1 111730Z 34029KT 04/M10 A3012 RMK A01 T00421099  RH  035%=      5-min Rain = 0
KLE1 111731Z 34028KT 04/M10 A3012 RMK A01 T00431099  RH  035%=      5-min Rain = 0
KLE1 111732Z 34024KT 04/M10 A3012 RMK A01 T00431098  RH  035%=      5-min Rain = 0
KLE1 111733Z 34026G31KT 05/M10 A3012 RMK A01 T00451097  RH  035%=      5-min Rain = 0
KLE1 111734Z 34023KT 05/M10 A3012 RMK A01 T00451098  RH  035%=      5-min Rain = 0
KLE1 111735Z 34024KT 05/M10 A3012 RMK A01 T00451097  RH  035%=      5-min Rain = 0
KLE1 111736Z 35025G31KT 05/M10 A3012 RMK A01 T00451097  RH  035%=      5-min Rain = 0
KLE1 111737Z 34027KT 04/M10 A3012 RMK A01 T00421100  RH  035%=      5-min Rain = 0
KLE1 111738Z 33024KT 04/M10 A3012 RMK A01 T00401100  RH  035%=      5-min Rain = 0
KLE1 111739Z 33027KT 04/M10 A3012 RMK A01 T00391100  RH  036%=      5-min Rain = 0
KLE1 111740Z 34026G32KT 04/M10 A3012 RMK A01 T00371101  RH  036%=      5-min Rain = 0
KLE1 111741Z 33027G34KT 04/M10 A3012 RMK A01 T00371100  RH  036%=      5-min Rain = 0
KLE1 111742Z 33029KT 04/M10 A3012 RMK A01 T00361100  RH  036%=      5-min Rain = 0
KLE1 111743Z 33028KT 04/M10 A3012 RMK A01 T00371100  RH  036%=      5-min Rain = 0
KLE1 111744Z 33028G33KT 04/M10 A3012 RMK A01 T00371099  RH  036%=      5-min Rain = 0
KLE1 111745Z 34029G34KT 04/M10 A3012 RMK A01 T00381099  RH  036%=      5-min Rain = 0
KLE1 111746Z 34025KT 04/M10 A3012 RMK A01 T00381100  RH  036%=      5-min Rain = 0
KLE1 111747Z 33025G32KT 04/M10 A3013 RMK A01 T00401098  RH  036%=      5-min Rain = 0
KLE1 111748Z 33029KT 04/M10 A3013 RMK A01 T00411098  RH  036%=      5-min Rain = 0
KLE1 111749Z 33029G35KT 04/M10 A3013 RMK A01 T00411098  RH  036%=      5-min Rain = 0
KLE1 111750Z 33026KT 04/M10 A3013 RMK A01 T00411097  RH  036%=      5-min Rain = 0
KLE1 111751Z 34027KT 04/M10 A3013 RMK A01 T00421096  RH  036%=      5-min Rain = 0
KLE1 111752Z 34028KT 04/M10 A3013 RMK A01 T00431096  RH  036%=      5-min Rain = 0
KLE1 111753Z 33026G33KT 04/M10 A3013 RMK A01 T00431096  RH  036%=      5-min Rain = 0
KLE1 111754Z 33026G31KT 04/M10 A3013 RMK A01 T00441095  RH  036%=      5-min Rain = 0
KLE1 111755Z 33026G31KT 04/M10 A3013 RMK A01 T00421097  RH  036%=      5-min Rain = 0
KLE1 111756Z 34028KT 04/M10 A3013 RMK A01 T00421097  RH  035%=      5-min Rain = 0
KLE1 111757Z 34026KT 04/M10 A3013 RMK A01 T00421098  RH  035%=      5-min Rain = 0
KLE1 111758Z 33025KT 04/M10 A3013 RMK A01 T00411098  RH  036%=      5-min Rain = 0
KLE1 111759Z 33031KT 04/M10 A3013 RMK A01 T00411098  RH  036%=      5-min Rain = 0
KLE1 111800Z 33028G34KT 04/M10 A3013 RMK A01 T00391100  RH  036%=      5-min Rain = 0
KLE1 111801Z 33032G37KT 04/M10 A3013 RMK A01 T00391099  RH  036%=      5-min Rain = 0
KLE1 111802Z 32030G35KT 04/M10 A3013 RMK A01 T00371101  RH  036%=      5-min Rain = 0
KLE1 111803Z 32030G35KT 04/M10 A3013 RMK A01 T00351102  RH  036%=      5-min Rain = 0
KLE1 111804Z 33029G37KT 03/M10 A3013 RMK A01 T00331102  RH  037%=      5-min Rain = 0
KLE1 111805Z 34029G34KT 03/M10 A3013 RMK A01 T00341100  RH  037%=      5-min Rain = 0
KLE1 111806Z 34025G30KT 04/M10 A3014 RMK A01 T00361099  RH  036%=      5-min Rain = 0
KLE1 111807Z 33025G33KT 04/M10 A3014 RMK A01 T00401098  RH  036%=      5-min Rain = 0
KLE1 111808Z 34032G39KT 04/M10 A3013 RMK A01 T00411099  RH  035%=      5-min Rain = 0
KLE1 111809Z 34032G39KT 04/M10 A3014 RMK A01 T00381103  RH  035%=      5-min Rain = 0
KLE1 111810Z 35033G39KT 04/M10 A3014 RMK A01 T00361104  RH  035%=      5-min Rain = 0
KLE1 111811Z 35034KT 04/M10 A3013 RMK A01 T00351103  RH  035%=      5-min Rain = 0
KLE1 111812Z 35031KT 03/M10 A3014 RMK A01 T00341104  RH  036%=      5-min Rain = 0
KLE1 111813Z 35028KT 03/M10 A3014 RMK A01 T00341103  RH  036%=      5-min Rain = 0
KLE1 111814Z 35030KT 04/M10 A3014 RMK A01 T00351102  RH  036%=      5-min Rain = 0
KLE1 111815Z 34024KT 04/M10 A3014 RMK A01 T00381099  RH  036%=      5-min Rain = 0
KLE1 111816Z 34024G29KT 04/M10 A3014 RMK A01 T00431096  RH  036%=      5-min Rain = 0
KLE1 111817Z 33026KT 05/M09 A3014 RMK A01 T00481094  RH  035%=      5-min Rain = 0
KLE1 111818Z 34027G33KT 05/M10 A3014 RMK A01 T00481096  RH  034%=      5-min Rain = 0
KLE1 111819Z 34025KT 05/M10 A3014 RMK A01 T00451097  RH  035%=      5-min Rain = 0
KLE1 111820Z 34024KT 04/M10 A3014 RMK A01 T00441096  RH  035%=      5-min Rain = 0
KLE1 111821Z 33023G29KT 05/M09 A3014 RMK A01 T00451094  RH  036%=      5-min Rain = 0
KLE1 111822Z 32026G31KT 05/M09 A3014 RMK A01 T00471092  RH  036%=      5-min Rain = 0
KLE1 111823Z 32025KT 05/M09 A3014 RMK A01 T00451094  RH  036%=      5-min Rain = 0
KLE1 111824Z 33026G32KT 04/M10 A3014 RMK A01 T00421095  RH  036%=      5-min Rain = 0
KLE1 111825Z 33026KT 04/M09 A3014 RMK A01 T00431093  RH  037%=      5-min Rain = 0
KLE1 111826Z 33024G33KT 04/M10 A3014 RMK A01 T00411095  RH  037%=      5-min Rain = 0
KLE1 111827Z 34028G33KT 04/M09 A3014 RMK A01 T00411094  RH  037%=      5-min Rain = 0
KLE1 111828Z 34026KT 04/M10 A3014 RMK A01 T00411095  RH  037%=      5-min Rain = 0
KLE1 111829Z 34030KT 04/M09 A3014 RMK A01 T00411094  RH  037%=      5-min Rain = 0
KLE1 111830Z 33024G29KT 04/M09 A3014 RMK A01 T00431093  RH  036%=      5-min Rain = 0
KLE1 111831Z 33028G34KT 05/M09 A3014 RMK A01 T00461092  RH  036%=      5-min Rain = 0
KLE1 111832Z 33031KT 05/M09 A3014 RMK A01 T00471094  RH  035%=      5-min Rain = 0
KLE1 111833Z 34027G32KT 05/M09 A3014 RMK A01 T00461094  RH  035%=      5-min Rain = 0
KLE1 111834Z 33024KT 05/M09 A3014 RMK A01 T00481092  RH  035%=      5-min Rain = 0
KLE1 111835Z 33028KT 05/M09 A3014 RMK A01 T00501093  RH  035%=      5-min Rain = 0
KLE1 111836Z 34028G33KT 05/M09 A3014 RMK A01 T00501094  RH  035%=      5-min Rain = 0
KLE1 111837Z 34029G35KT 05/M10 A3014 RMK A01 T00501095  RH  034%=      5-min Rain = 0
KLE1 111838Z 34029G39KT 05/M10 A3014 RMK A01 T00501096  RH  034%=      5-min Rain = 0
KLE1 111839Z 35031KT 05/M10 A3014 RMK A01 T00491096  RH  034%=      5-min Rain = 0
KLE1 111840Z 34029KT 05/M10 A3014 RMK A01 T00481096  RH  034%=      5-min Rain = 0
KLE1 111841Z 35032KT 05/M10 A3014 RMK A01 T00471096  RH  034%=      5-min Rain = 0
KLE1 111842Z 34027G33KT 05/M10 A3014 RMK A01 T00451097  RH  035%=      5-min Rain = 0
KLE1 111843Z 34031G36KT 05/M10 A3014 RMK A01 T00451096  RH  035%=      5-min Rain = 0
KLE1 111844Z 35030G35KT 05/M10 A3014 RMK A01 T00461096  RH  035%=      5-min Rain = 0
KLE1 111845Z 34032KT 05/M10 A3014 RMK A01 T00471096  RH  035%=      5-min Rain = 0
KLE1 111846Z 34028KT 05/M10 A3014 RMK A01 T00451097  RH  035%=      5-min Rain = 0
KLE1 111847Z 34026KT 05/M10 A3014 RMK A01 T00451097  RH  035%=      5-min Rain = 0
KLE1 111848Z 35026KT 05/M10 A3014 RMK A01 T00471095  RH  035%=      5-min Rain = 0
KLE1 111849Z 34026KT 05/M10 A3014 RMK A01 T00491095  RH  035%=      5-min Rain = 0
KLE1 111850Z 33027KT 05/M10 A3014 RMK A01 T00491095  RH  034%=      5-min Rain = 0
KLE1 111851Z 34028KT 05/M09 A3014 RMK A01 T00501094  RH  034%=      5-min Rain = 0
KLE1 111852Z 34029KT 05/M10 A3014 RMK A01 T00491095  RH  034%=      5-min Rain = 0
KLE1 111853Z 33026G33KT 05/M10 A3014 RMK A01 T00491095  RH  034%=      5-min Rain = 0
KLE1 111854Z 34027G37KT 05/M10 A3014 RMK A01 T00501095  RH  034%=      5-min Rain = 0
KLE1 111855Z 34027KT 05/M10 A3014 RMK A01 T00511095  RH  034%=      5-min Rain = 0
KLE1 111856Z 34030G35KT 05/M10 A3014 RMK A01 T00531096  RH  033%=      5-min Rain = 0
KLE1 111857Z 34029G35KT 05/M10 A3014 RMK A01 T00521096  RH  033%=      5-min Rain = 0
KLE1 111858Z 35030G35KT 05/M10 A3014 RMK A01 T00521097  RH  033%=      5-min Rain = 0
KLE1 111859Z 34023KT 05/M10 A3014 RMK A01 T00541096  RH  033%=      5-min Rain = 0
KLE1 111900Z 33024G31KT 06/M09 A3014 RMK A01 T00581093  RH  033%=      5-min Rain = 0
KLE1 111901Z 33026KT 06/M09 A3014 RMK A01 T00581094  RH  033%=      5-min Rain = 0
KLE1 111902Z 33023KT 06/M09 A3014 RMK A01 T00581094  RH  033%=      5-min Rain = 0
KLE1 111903Z 33025KT 06/M09 A3014 RMK A01 T00591093  RH  033%=      5-min Rain = 0
KLE1 111904Z 34023G28KT 06/M09 A3014 RMK A01 T00591093  RH  033%=      5-min Rain = 0
KLE1 111905Z 33025KT 06/M09 A3014 RMK A01 T00601092  RH  033%=      5-min Rain = 0
KLE1 111906Z 32027KT 06/M09 A3014 RMK A01 T00601092  RH  033%=      5-min Rain = 0
KLE1 111907Z 33025G31KT 06/M09 A3014 RMK A01 T00601092  RH  033%=      5-min Rain = 0
KLE1 111908Z 34020G25KT 06/M09 A3014 RMK A01 T00621091  RH  033%=      5-min Rain = 0
KLE1 111909Z 34025KT 07/M09 A3014 RMK A01 T00651090  RH  032%=      5-min Rain = 0
KLE1 111910Z 34022G27KT 07/M09 A3014 RMK A01 T00651091  RH  032%=      5-min Rain = 0
KLE1 111911Z 33028KT 07/M09 A3014 RMK A01 T00651091  RH  032%=      5-min Rain = 0
KLE1 111912Z 33027KT 06/M09 A3014 RMK A01 T00611093  RH  032%=      5-min Rain = 0
KLE1 111913Z 33025KT 06/M09 A3014 RMK A01 T00601093  RH  033%=      5-min Rain = 0
KLE1 111914Z 33027KT 06/M09 A3014 RMK A01 T00621092  RH  032%=      5-min Rain = 0
KLE1 111915Z 33024KT 06/M09 A3014 RMK A01 T00601093  RH  032%=      5-min Rain = 0
KLE1 111916Z 34025G31KT 06/M09 A3014 RMK A01 T00591092  RH  033%=      5-min Rain = 0
KLE1 111917Z 34027G32KT 06/M09 A3014 RMK A01 T00611091  RH  033%=      5-min Rain = 0
KLE1 111918Z 34028G33KT 06/M09 A3014 RMK A01 T00611092  RH  032%=      5-min Rain = 0
KLE1 111919Z 33032KT 06/M09 A3014 RMK A01 T00611093  RH  032%=      5-min Rain = 0
KLE1 111920Z 34028KT 06/M09 A3014 RMK A01 T00601094  RH  032%=      5-min Rain = 0
KLE1 111921Z 34031KT 06/M09 A3014 RMK A01 T00601094  RH  032%=      5-min Rain = 0
KLE1 111922Z 33030KT 06/M10 A3014 RMK A01 T00601095  RH  032%=      5-min Rain = 0
KLE1 111923Z 33030KT 06/M09 A3014 RMK A01 T00591094  RH  032%=      5-min Rain = 0
KLE1 111924Z 33029KT 06/M09 A3014 RMK A01 T00601093  RH  032%=      5-min Rain = 0
KLE1 111925Z 33026G31KT 06/M09 A3014 RMK A01 T00621093  RH  032%=      5-min Rain = 0
KLE1 111926Z 33028KT 06/M09 A3014 RMK A01 T00641093  RH  032%=      5-min Rain = 0
KLE1 111927Z 34027G32KT 06/M10 A3014 RMK A01 T00631095  RH  031%=      5-min Rain = 0
KLE1 111928Z 34026KT 06/M10 A3014 RMK A01 T00621095  RH  031%=      5-min Rain = 0
KLE1 111929Z 34027KT 06/M09 A3014 RMK A01 T00621094  RH  032%=      5-min Rain = 0
KLE1 111930Z 34026G31KT 06/M09 A3014 RMK A01 T00641094  RH  031%=      5-min Rain = 0
KLE1 111931Z 34026KT 06/M09 A3014 RMK A01 T00641094  RH  031%=      5-min Rain = 0
KLE1 111932Z 34024G32KT 07/M09 A3014 RMK A01 T00651094  RH  031%=      5-min Rain = 0
KLE1 111933Z 33025KT 07/M09 A3014 RMK A01 T00651093  RH  031%=      5-min Rain = 0
KLE1 111934Z 33022G27KT 07/M09 A3014 RMK A01 T00651093  RH  031%=      5-min Rain = 0
KLE1 111935Z 34018KT 07/M09 A3014 RMK A01 T00691090  RH  031%=      5-min Rain = 0
KLE1 111936Z 33022KT 07/M09 A3015 RMK A01 T00711091  RH  031%=      5-min Rain = 0
KLE1 111937Z 35025KT 07/M10 A3015 RMK A01 T00681095  RH  030%=      5-min Rain = 0
KLE1 111938Z 35024KT 07/M09 A3015 RMK A01 T00671094  RH  031%=      5-min Rain = 0
KLE1 111939Z 34021KT 07/M09 A3015 RMK A01 T00671093  RH  031%=      5-min Rain = 0
KLE1 111940Z 34020KT 07/M09 A3014 RMK A01 T00671092  RH  031%=      5-min Rain = 0
KLE1 111941Z 34019KT 07/M09 A3014 RMK A01 T00711090  RH  031%=      5-min Rain = 0
KLE1 111942Z 34024G29KT 07/M09 A3014 RMK A01 T00741091  RH  030%=      5-min Rain = 0
KLE1 111943Z 34024G30KT 07/M09 A3014 RMK A01 T00721093  RH  030%=      5-min Rain = 0
KLE1 111944Z 34025KT 07/M09 A3014 RMK A01 T00701093  RH  030%=      5-min Rain = 0
KLE1 111945Z 34024KT 07/M09 A3014 RMK A01 T00691093  RH  030%=      5-min Rain = 0
KLE1 111946Z 34023KT 07/M09 A3014 RMK A01 T00681092  RH  031%=      5-min Rain = 0
KLE1 111947Z 35027KT 07/M09 A3014 RMK A01 T00691092  RH  031%=      5-min Rain = 0
KLE1 111948Z 35026KT 07/M09 A3014 RMK A01 T00681093  RH  031%=      5-min Rain = 0
KLE1 111949Z 35024KT 07/M09 A3014 RMK A01 T00701092  RH  031%=      5-min Rain = 0
KLE1 111950Z 35026KT 07/M09 A3015 RMK A01 T00701092  RH  030%=      5-min Rain = 0
KLE1 111951Z 35027KT 07/M09 A3015 RMK A01 T00701093  RH  030%=      5-min Rain = 0
KLE1 111952Z 34024KT 07/M09 A3015 RMK A01 T00711093  RH  030%=      5-min Rain = 0
KLE1 111953Z 36026G31KT 07/M10 A3015 RMK A01 T00711095  RH  030%=      5-min Rain = 0
KLE1 111954Z 35028KT 07/M10 A3015 RMK A01 T00711096  RH  029%=      5-min Rain = 0
KLE1 111955Z 36026KT 07/M10 A3015 RMK A01 T00701096  RH  029%=      5-min Rain = 0
KLE1 111956Z 34027KT 07/M10 A3015 RMK A01 T00701096  RH  029%=      5-min Rain = 0
KLE1 111957Z 35025G31KT 07/M10 A3015 RMK A01 T00701096  RH  030%=      5-min Rain = 0
KLE1 111958Z 36026KT 07/M10 A3015 RMK A01 T00701095  RH  030%=      5-min Rain = 0
KLE1 111959Z 36023G29KT 07/M10 A3015 RMK A01 T00701096  RH  029%=      5-min Rain = 0
KLE1 112000Z 35029KT 07/M10 A3015 RMK A01 T00701095  RH  030%=      5-min Rain = 0
KLE1 112001Z 35024G31KT 07/M10 A3015 RMK A01 T00701096  RH  030%=      5-min Rain = 0
KLE1 112002Z 35026KT 07/M10 A3015 RMK A01 T00701096  RH  030%=      5-min Rain = 0
KLE1 112003Z 34022G27KT 07/M10 A3015 RMK A01 T00691096  RH  030%=      5-min Rain = 0
KLE1 112004Z 35024KT 07/M09 A3015 RMK A01 T00721093  RH  030%=      5-min Rain = 0
KLE1 112005Z 35022G27KT 07/M09 A3015 RMK A01 T00731094  RH  029%=      5-min Rain = 0
KLE1 112006Z 36023KT 07/M10 A3015 RMK A01 T00741095  RH  029%=      5-min Rain = 0
KLE1 112007Z 36025KT 07/M10 A3015 RMK A01 T00741095  RH  029%=      5-min Rain = 0
KLE1 112008Z 35024KT 07/M10 A3015 RMK A01 T00711096  RH  029%=      5-min Rain = 0
KLE1 112009Z 36023KT 07/M09 A3015 RMK A01 T00721094  RH  030%=      5-min Rain = 0
KLE1 112010Z 36022G27KT 07/M09 A3015 RMK A01 T00721094  RH  030%=      5-min Rain = 0
KLE1 112011Z 35024KT 07/M10 A3015 RMK A01 T00711095  RH  030%=      5-min Rain = 0
KLE1 112012Z 35023KT 07/M09 A3015 RMK A01 T00721093  RH  030%=      5-min Rain = 0
KLE1 112013Z 35020KT 07/M09 A3015 RMK A01 T00731092  RH  030%=      5-min Rain = 0
KLE1 112014Z 36024KT 07/M09 A3015 RMK A01 T00731092  RH  030%=      5-min Rain = 0
KLE1 112015Z 34024KT 07/M09 A3015 RMK A01 T00731093  RH  030%=      5-min Rain = 0
KLE1 112016Z 34023KT 07/M09 A3015 RMK A01 T00721093  RH  030%=      5-min Rain = 0
KLE1 112017Z 34020KT 07/M09 A3015 RMK A01 T00731092  RH  030%=      5-min Rain = 0
KLE1 112018Z 34023KT 08/M09 A3015 RMK A01 T00771089  RH  030%=      5-min Rain = 0
KLE1 112019Z 35024KT 08/M09 A3015 RMK A01 T00771092  RH  029%=      5-min Rain = 0
KLE1 112020Z 35024G29KT 08/M09 A3015 RMK A01 T00751092  RH  029%=      5-min Rain = 0
KLE1 112021Z 34024G30KT 08/M09 A3015 RMK A01 T00751091  RH  030%=      5-min Rain = 0
KLE1 112022Z 35025KT 08/M09 A3015 RMK A01 T00751091  RH  030%=      5-min Rain = 0
KLE1 112023Z 36022KT 07/M09 A3015 RMK A01 T00741091  RH  030%=      5-min Rain = 0
KLE1 112024Z 34020KT 07/M09 A3015 RMK A01 T00741090  RH  030%=      5-min Rain = 0
KLE1 112025Z 34022KT 08/M09 A3015 RMK A01 T00751088  RH  030%=      5-min Rain = 0
KLE1 112026Z 34021KT 08/M09 A3015 RMK A01 T00751088  RH  030%=      5-min Rain = 0
KLE1 112027Z 34021KT 08/M09 A3015 RMK A01 T00751087  RH  031%=      5-min Rain = 0
KLE1 112028Z 34020KT 07/M09 A3015 RMK A01 T00741087  RH  031%=      5-min Rain = 0
KLE1 112029Z 34020KT 08/M09 A3015 RMK A01 T00751085  RH  031%=      5-min Rain = 0
KLE1 112030Z 34020KT 08/M08 A3015 RMK A01 T00761083  RH  031%=      5-min Rain = 0
KLE1 112031Z 33025KT 08/M08 A3015 RMK A01 T00771083  RH  031%=      5-min Rain = 0
KLE1 112032Z 32025KT 08/M09 A3015 RMK A01 T00751087  RH  031%=      5-min Rain = 0
KLE1 112033Z 32025KT 07/M09 A3016 RMK A01 T00721087  RH  031%=      5-min Rain = 0
KLE1 112034Z 33027KT 07/M09 A3015 RMK A01 T00721087  RH  031%=      5-min Rain = 0
KLE1 112035Z 34024G29KT 07/M09 A3016 RMK A01 T00721087  RH  031%=      5-min Rain = 0
KLE1 112036Z 34022KT 07/M09 A3016 RMK A01 T00731086  RH  031%=      5-min Rain = 0
KLE1 112037Z 34018G23KT 07/M09 A3016 RMK A01 T00741086  RH  031%=      5-min Rain = 0
KLE1 112038Z 34023KT 08/M09 A3016 RMK A01 T00781085  RH  031%=      5-min Rain = 0
KLE1 112039Z 35023G28KT 08/M09 A3016 RMK A01 T00761088  RH  030%=      5-min Rain = 0
KLE1 112040Z 34022G29KT 07/M09 A3016 RMK A01 T00741090  RH  030%=      5-min Rain = 0
KLE1 112041Z 34026KT 08/M09 A3016 RMK A01 T00751090  RH  030%=      5-min Rain = 0
KLE1 112042Z 35029KT 07/M09 A3016 RMK A01 T00731093  RH  030%=      5-min Rain = 0
KLE1 112043Z 35030KT 07/M10 A3016 RMK A01 T00701095  RH  030%=      5-min Rain = 0
KLE1 112044Z 34027KT 07/M10 A3016 RMK A01 T00681095  RH  030%=      5-min Rain = 0
KLE1 112045Z 34025KT 07/M10 A3016 RMK A01 T00681095  RH  030%=      5-min Rain = 0
KLE1 112046Z 34027KT 07/M10 A3016 RMK A01 T00691095  RH  030%=      5-min Rain = 0
KLE1 112047Z 35029G34KT 07/M10 A3017 RMK A01 T00691097  RH  030%=      5-min Rain = 0
KLE1 112048Z 35028KT 07/M10 A3016 RMK A01 T00681098  RH  029%=      5-min Rain = 0
KLE1 112049Z 35028KT 07/M10 A3016 RMK A01 T00691100  RH  029%=      5-min Rain = 0
KLE1 112050Z 35025KT 07/M10 A3017 RMK A01 T00691100  RH  029%=      5-min Rain = 0
KLE1 112051Z 35024G29KT 07/M10 A3017 RMK A01 T00701100  RH  029%=      5-min Rain = 0
KLE1 112052Z 35024G30KT 07/M10 A3017 RMK A01 T00701100  RH  029%=      5-min Rain = 0
KLE1 112053Z 35024KT 07/M10 A3017 RMK A01 T00701100  RH  029%=      5-min Rain = 0
KLE1 112054Z 00022KT 07/M10 A3017 RMK A01 T00701099  RH  029%=      5-min Rain = 0
KLE1 112055Z 35022KT 07/M10 A3017 RMK A01 T00701099  RH  029%=      5-min Rain = 0
KLE1 112056Z 36022KT 07/M10 A3017 RMK A01 T00701098  RH  029%=      5-min Rain = 0
KLE1 112057Z 35022KT 07/M10 A3017 RMK A01 T00711098  RH  029%=      5-min Rain = 0
KLE1 112058Z 35022KT 07/M10 A3017 RMK A01 T00711098  RH  029%=      5-min Rain = 0
KLE1 112059Z 35021KT 07/M10 A3017 RMK A01 T00701098  RH  029%=      5-min Rain = 0
KLE1 112100Z 35020KT 07/M10 A3017 RMK A01 T00701098  RH  029%=      5-min Rain = 0
KLE1 112101Z 34020KT 07/M10 A3017 RMK A01 T00691098  RH  029%=      5-min Rain = 0
KLE1 112102Z 35019KT 07/M10 A3017 RMK A01 T00701096  RH  029%=      5-min Rain = 0
KLE1 112103Z 35020KT 07/M10 A3017 RMK A01 T00711096  RH  029%=      5-min Rain = 0
KLE1 112104Z 36021KT 07/M10 A3017 RMK A01 T00721096  RH  029%=      5-min Rain = 0
KLE1 112105Z 36019KT 07/M10 A3017 RMK A01 T00711097  RH  029%=      5-min Rain = 0
KLE1 112106Z 36020KT 07/M10 A3017 RMK A01 T00701096  RH  029%=      5-min Rain = 0
KLE1 112107Z 35018KT 07/M10 A3018 RMK A01 T00701095  RH  030%=      5-min Rain = 0
KLE1 112108Z 36016KT 07/M10 A3018 RMK A01 T00701095  RH  030%=      5-min Rain = 0
KLE1 112109Z 00018KT 07/M10 A3018 RMK A01 T00711095  RH  030%=      5-min Rain = 0
KLE1 112110Z 35019KT 07/M10 A3018 RMK A01 T00711095  RH  030%=      5-min Rain = 0
KLE1 112111Z 35017KT 07/M10 A3018 RMK A01 T00711095  RH  030%=      5-min Rain = 0
KLE1 112112Z 36018KT 07/M09 A3018 RMK A01 T00721093  RH  030%=      5-min Rain = 0
KLE1 112113Z 35017G22KT 07/M09 A3018 RMK A01 T00741093  RH  030%=      5-min Rain = 0
KLE1 112114Z 34017KT 08/M09 A3018 RMK A01 T00751091  RH  030%=      5-min Rain = 0
KLE1 112115Z 34017G22KT 08/M09 A3018 RMK A01 T00781090  RH  029%=      5-min Rain = 0
KLE1 112116Z 33018G24KT 08/M09 A3018 RMK A01 T00791090  RH  029%=      5-min Rain = 0
KLE1 112117Z 33021KT 08/M09 A3018 RMK A01 T00791091  RH  029%=      5-min Rain = 0
KLE1 112118Z 34022G27KT 08/M09 A3018 RMK A01 T00771092  RH  029%=      5-min Rain = 0
KLE1 112119Z 33017KT 08/M09 A3018 RMK A01 T00751092  RH  029%=      5-min Rain = 0
KLE1 112120Z 33018KT 08/M09 A3018 RMK A01 T00761090  RH  030%=      5-min Rain = 0
KLE1 112121Z 33016KT 08/M09 A3018 RMK A01 T00771090  RH  030%=      5-min Rain = 0
KLE1 112122Z 34014KT 08/M09 A3018 RMK A01 T00781090  RH  029%=      5-min Rain = 0
KLE1 112123Z 34015KT 08/M09 A3018 RMK A01 T00801088  RH  029%=      5-min Rain = 0
KLE1 112124Z 35019KT 08/M09 A3018 RMK A01 T00821088  RH  029%=      5-min Rain = 0
KLE1 112125Z 35020KT 08/M09 A3018 RMK A01 T00811089  RH  029%=      5-min Rain = 0
KLE1 112126Z 35020KT 08/M09 A3018 RMK A01 T00791090  RH  029%=      5-min Rain = 0
KLE1 112127Z 34015KT 08/M09 A3018 RMK A01 T00781090  RH  029%=      5-min Rain = 0
KLE1 112128Z 35017KT 08/M09 A3018 RMK A01 T00781089  RH  030%=      5-min Rain = 0
KLE1 112129Z 34017KT 08/M09 A3018 RMK A01 T00791089  RH  030%=      5-min Rain = 0
KLE1 112130Z 33018KT 08/M09 A3018 RMK A01 T00811088  RH  029%=      5-min Rain = 0
KLE1 112131Z 34019KT 08/M09 A3018 RMK A01 T00811089  RH  029%=      5-min Rain = 0
KLE1 112132Z 34020G25KT 08/M09 A3018 RMK A01 T00811091  RH  029%=      5-min Rain = 0
KLE1 112133Z 35024KT 08/M09 A3018 RMK A01 T00811093  RH  028%=      5-min Rain = 0
KLE1 112134Z 35025KT 08/M10 A3018 RMK A01 T00801095  RH  028%=      5-min Rain = 0
KLE1 112135Z 35025G30KT 08/M10 A3018 RMK A01 T00791096  RH  028%=      5-min Rain = 0
KLE1 112136Z 35025KT 08/M10 A3018 RMK A01 T00791095  RH  028%=      5-min Rain = 0
KLE1 112137Z 35022G27KT 08/M09 A3018 RMK A01 T00781094  RH  028%=      5-min Rain = 0
KLE1 112138Z 35021KT 08/M09 A3018 RMK A01 T00781094  RH  029%=      5-min Rain = 0
KLE1 112139Z 35020KT 08/M09 A3018 RMK A01 T00781093  RH  029%=      5-min Rain = 0
KLE1 112140Z 35020KT 08/M09 A3018 RMK A01 T00781093  RH  029%=      5-min Rain = 0
KLE1 112141Z 36021KT 08/M09 A3018 RMK A01 T00771093  RH  029%=      5-min Rain = 0
KLE1 112142Z 34017G22KT 08/M09 A3018 RMK A01 T00781093  RH  029%=      5-min Rain = 0
KLE1 112143Z 34016KT 08/M09 A3018 RMK A01 T00791092  RH  029%=      5-min Rain = 0
KLE1 112144Z 35017KT 08/M09 A3018 RMK A01 T00811090  RH  029%=      5-min Rain = 0
KLE1 112145Z 35020KT 08/M09 A3018 RMK A01 T00821091  RH  028%=      5-min Rain = 0
KLE1 112146Z 34020KT 08/M09 A3018 RMK A01 T00801093  RH  028%=      5-min Rain = 0
KLE1 112147Z 34019G25KT 08/M09 A3019 RMK A01 T00791092  RH  029%=      5-min Rain = 0
KLE1 112148Z 34018KT 08/M09 A3019 RMK A01 T00801091  RH  029%=      5-min Rain = 0
KLE1 112149Z 33019KT 08/M09 A3019 RMK A01 T00811091  RH  029%=      5-min Rain = 0
KLE1 112150Z 34017KT 08/M09 A3019 RMK A01 T00801091  RH  029%=      5-min Rain = 0
KLE1 112151Z 33014KT 08/M09 A3019 RMK A01 T00801091  RH  029%=      5-min Rain = 0
KLE1 112152Z 35016KT 08/M09 A3019 RMK A01 T00811090  RH  029%=      5-min Rain = 0
KLE1 112153Z 35018KT 08/M09 A3019 RMK A01 T00821090  RH  028%=      5-min Rain = 0
KLE1 112154Z 35016KT 08/M09 A3019 RMK A01 T00811092  RH  028%=      5-min Rain = 0
KLE1 112155Z 34018G23KT 08/M09 A3019 RMK A01 T00801092  RH  029%=      5-min Rain = 0
KLE1 112156Z 34018KT 08/M09 A3019 RMK A01 T00801091  RH  029%=      5-min Rain = 0
KLE1 112157Z 34018KT 08/M09 A3019 RMK A01 T00801091  RH  029%=      5-min Rain = 0
KLE1 112158Z 34021KT 08/M09 A3019 RMK A01 T00791091  RH  029%=      5-min Rain = 0
KLE1 112159Z 34017KT 08/M09 A3019 RMK A01 T00781092  RH  029%=      5-min Rain = 0
KLE1 112200Z 35017KT 08/M09 A3019 RMK A01 T00781091  RH  029%=      5-min Rain = 0
KLE1 112201Z 34017KT 08/M09 A3019 RMK A01 T00771091  RH  029%=      5-min Rain = 0
KLE1 112202Z 35017KT 08/M09 A3019 RMK A01 T00771090  RH  029%=      5-min Rain = 0
KLE1 112203Z 35015KT 08/M09 A3019 RMK A01 T00771090  RH  029%=      5-min Rain = 0
KLE1 112204Z 34014KT 08/M09 A3019 RMK A01 T00781090  RH  029%=      5-min Rain = 0
KLE1 112205Z 34016KT 08/M09 A3019 RMK A01 T00781090  RH  029%=      5-min Rain = 0
KLE1 112206Z 35015KT 08/M09 A3019 RMK A01 T00781091  RH  029%=      5-min Rain = 0
KLE1 112207Z 35015KT 08/M09 A3019 RMK A01 T00781090  RH  029%=      5-min Rain = 0
KLE1 112208Z 35018KT 08/M09 A3019 RMK A01 T00781090  RH  029%=      5-min Rain = 0
KLE1 112209Z 34016KT 08/M09 A3019 RMK A01 T00781089  RH  029%=      5-min Rain = 0
KLE1 112210Z 34014KT 08/M09 A3019 RMK A01 T00781089  RH  030%=      5-min Rain = 0
KLE1 112211Z 34014KT 08/M09 A3019 RMK A01 T00781088  RH  030%=      5-min Rain = 0
KLE1 112212Z 34015KT 08/M09 A3019 RMK A01 T00781088  RH  030%=      5-min Rain = 0
KLE1 112213Z 35015KT 08/M09 A3019 RMK A01 T00781087  RH  030%=      5-min Rain = 0
KLE1 112214Z 34015KT 08/M09 A3019 RMK A01 T00781087  RH  030%=      5-min Rain = 0
KLE1 112215Z 33016KT 08/M09 A3019 RMK A01 T00781087  RH  030%=      5-min Rain = 0
KLE1 112216Z 33016KT 08/M09 A3019 RMK A01 T00771088  RH  030%=      5-min Rain = 0
KLE1 112217Z 33016G21KT 08/M09 A3019 RMK A01 T00771088  RH  030%=      5-min Rain = 0
KLE1 112218Z 34015G20KT 08/M09 A3019 RMK A01 T00781087  RH  030%=      5-min Rain = 0
KLE1 112219Z 34018KT 08/M09 A3019 RMK A01 T00791088  RH  030%=      5-min Rain = 0
KLE1 112220Z 34016KT 08/M09 A3019 RMK A01 T00791088  RH  030%=      5-min Rain = 0
KLE1 112221Z 35013KT 08/M09 A3019 RMK A01 T00791088  RH  030%=      5-min Rain = 0
KLE1 112222Z 34014KT 08/M09 A3019 RMK A01 T00801088  RH  029%=      5-min Rain = 0
KLE1 112223Z 34017KT 08/M09 A302 RMK A01 T00811088  RH  029%=      5-min Rain = 0
KLE1 112224Z 35016KT 08/M09 A302 RMK A01 T00811089  RH  029%=      5-min Rain = 0
KLE1 112225Z 35018KT 08/M09 A302 RMK A01 T00811090  RH  029%=      5-min Rain = 0
KLE1 112226Z 35017KT 08/M09 A302 RMK A01 T00801091  RH  029%=      5-min Rain = 0
KLE1 112227Z 36020KT 08/M09 A302 RMK A01 T00791091  RH  029%=      5-min Rain = 0
KLE1 112228Z 35018KT 08/M09 A302 RMK A01 T00781092  RH  029%=      5-min Rain = 0
KLE1 112229Z 36019KT 08/M09 A302 RMK A01 T00771091  RH  029%=      5-min Rain = 0
KLE1 112230Z 35016KT 08/M09 A302 RMK A01 T00771092  RH  029%=      5-min Rain = 0
KLE1 112231Z 35017G22KT 08/M09 A302 RMK A01 T00771092  RH  029%=      5-min Rain = 0
KLE1 112232Z 35017KT 08/M09 A302 RMK A01 T00781093  RH  029%=      5-min Rain = 0
KLE1 112233Z 35017KT 08/M09 A302 RMK A01 T00781093  RH  029%=      5-min Rain = 0
KLE1 112234Z 35018KT 08/M09 A302 RMK A01 T00781092  RH  029%=      5-min Rain = 0
KLE1 112235Z 34016KT 08/M09 A302 RMK A01 T00781093  RH  029%=      5-min Rain = 0
KLE1 112236Z 34015KT 08/M09 A302 RMK A01 T00781091  RH  029%=      5-min Rain = 0
KLE1 112237Z 34013KT 08/M09 A302 RMK A01 T00781091  RH  029%=      5-min Rain = 0
KLE1 112238Z 34016KT 08/M09 A302 RMK A01 T00791091  RH  029%=      5-min Rain = 0
KLE1 112239Z 35015KT 08/M09 A302 RMK A01 T00791091  RH  029%=      5-min Rain = 0
KLE1 112240Z 34015KT 08/M09 A302 RMK A01 T00791091  RH  029%=      5-min Rain = 0
KLE1 112241Z 34016KT 08/M09 A302 RMK A01 T00791091  RH  029%=      5-min Rain = 0
KLE1 112242Z 34020KT 08/M09 A302 RMK A01 T00781091  RH  029%=      5-min Rain = 0
KLE1 112243Z 34020G25KT 08/M09 A302 RMK A01 T00781091  RH  029%=      5-min Rain = 0
KLE1 112244Z 35018G24KT 08/M09 A302 RMK A01 T00771092  RH  029%=      5-min Rain = 0
KLE1 112245Z 35021KT 08/M09 A3021 RMK A01 T00761092  RH  029%=      5-min Rain = 0
KLE1 112246Z 35018KT 08/M09 A3021 RMK A01 T00771092  RH  029%=      5-min Rain = 0
KLE1 112247Z 36021KT 08/M09 A3021 RMK A01 T00761093  RH  029%=      5-min Rain = 0
KLE1 112248Z 34017G23KT 08/M09 A3021 RMK A01 T00771092  RH  029%=      5-min Rain = 0
KLE1 112249Z 35018KT 08/M09 A3021 RMK A01 T00761092  RH  029%=      5-min Rain = 0
KLE1 112250Z 34017KT 08/M09 A3021 RMK A01 T00761093  RH  029%=      5-min Rain = 0
KLE1 112251Z 34017KT 08/M09 A3021 RMK A01 T00751092  RH  029%=      5-min Rain = 0
KLE1 112252Z 34015KT 08/M09 A3021 RMK A01 T00751092  RH  029%=      5-min Rain = 0
KLE1 112253Z 34019KT 08/M09 A3021 RMK A01 T00761092  RH  029%=      5-min Rain = 0
KLE1 112254Z 35020KT 08/M09 A3021 RMK A01 T00751093  RH  029%=      5-min Rain = 0
KLE1 112255Z 35017KT 07/M09 A3021 RMK A01 T00741093  RH  029%=      5-min Rain = 0
KLE1 112256Z 35020KT 07/M09 A3021 RMK A01 T00731092  RH  030%=      5-min Rain = 0
KLE1 112257Z 34016KT 07/M09 A3021 RMK A01 T00731092  RH  030%=      5-min Rain = 0
KLE1 112258Z 35016KT 07/M09 A3021 RMK A01 T00731092  RH  030%=      5-min Rain = 0
KLE1 112259Z 35017KT 07/M09 A3021 RMK A01 T00731092  RH  030%=      5-min Rain = 0
KLE1 112300Z 35019KT 07/M09 A3021 RMK A01 T00721092  RH  030%=      5-min Rain = 0
KLE1 112301Z 34018G23KT 07/M09 A3021 RMK A01 T00721092  RH  030%=      5-min Rain = 0
KLE1 112302Z 34017KT 07/M09 A3021 RMK A01 T00721092  RH  030%=      5-min Rain = 0
KLE1 112303Z 34016KT 07/M09 A3021 RMK A01 T00711093  RH  030%=      5-min Rain = 0
KLE1 112304Z 33014KT 07/M09 A3021 RMK A01 T00721092  RH  030%=      5-min Rain = 0
KLE1 112305Z 34017G22KT 07/M09 A3021 RMK A01 T00711092  RH  030%=      5-min Rain = 0
KLE1 112306Z 34019KT 07/M09 A3021 RMK A01 T00711092  RH  030%=      5-min Rain = 0
KLE1 112307Z 35020KT 07/M09 A3021 RMK A01 T00701093  RH  030%=      5-min Rain = 0
KLE1 112308Z 35018KT 07/M09 A3021 RMK A01 T00701092  RH  031%=      5-min Rain = 0
KLE1 112309Z 35018KT 07/M09 A3021 RMK A01 T00691092  RH  031%=      5-min Rain = 0
KLE1 112310Z 35018KT 07/M09 A3021 RMK A01 T00691091  RH  031%=      5-min Rain = 0
KLE1 112311Z 35017KT 07/M09 A3021 RMK A01 T00691091  RH  031%=      5-min Rain = 0
KLE1 112312Z 35016KT 07/M09 A3021 RMK A01 T00681091  RH  031%=      5-min Rain = 0
KLE1 112313Z 35017KT 07/M09 A3022 RMK A01 T00681092  RH  031%=      5-min Rain = 0
KLE1 112314Z 35016KT 07/M09 A3021 RMK A01 T00681091  RH  031%=      5-min Rain = 0
KLE1 112315Z 36016KT 07/M09 A3022 RMK A01 T00671091  RH  031%=      5-min Rain = 0
KLE1 112316Z 00016KT 07/M09 A3022 RMK A01 T00671091  RH  031%=      5-min Rain = 0
KLE1 112317Z 36016KT 07/M09 A3022 RMK A01 T00671091  RH  031%=      5-min Rain = 0
KLE1 112318Z 35015KT 07/M09 A3022 RMK A01 T00671090  RH  032%=      5-min Rain = 0
KLE1 112319Z 35015KT 07/M09 A3022 RMK A01 T00661091  RH  032%=      5-min Rain = 0
KLE1 112320Z 36016KT 07/M09 A3022 RMK A01 T00661091  RH  032%=      5-min Rain = 0
KLE1 112321Z 36015KT 07/M09 A3022 RMK A01 T00661090  RH  032%=      5-min Rain = 0
KLE1 112322Z 35015KT 07/M09 A3022 RMK A01 T00651091  RH  032%=      5-min Rain = 0
KLE1 112323Z 35014KT 07/M09 A3022 RMK A01 T00651090  RH  032%=      5-min Rain = 0
KLE1 112324Z 35014KT 07/M09 A3022 RMK A01 T00651090  RH  032%=      5-min Rain = 0
KLE1 112325Z 35014KT 06/M09 A3022 RMK A01 T00641090  RH  032%=      5-min Rain = 0
KLE1 112326Z 35014KT 06/M09 A3022 RMK A01 T00641090  RH  032%=      5-min Rain = 0
KLE1 112327Z 35016KT 06/M09 A3022 RMK A01 T00641090  RH  032%=      5-min Rain = 0
KLE1 112328Z 34012KT 06/M09 A3022 RMK A01 T00641090  RH  032%=      5-min Rain = 0
KLE1 112329Z 35013KT 06/M09 A3022 RMK A01 T00631090  RH  032%=      5-min Rain = 0
KLE1 112330Z 34013KT 06/M09 A3022 RMK A01 T00621091  RH  032%=      5-min Rain = 0
KLE1 112331Z 35012KT 06/M09 A3022 RMK A01 T00621091  RH  033%=      5-min Rain = 0
KLE1 112332Z 35012KT 06/M09 A3022 RMK A01 T00611091  RH  033%=      5-min Rain = 0
KLE1 112333Z 35013KT 06/M09 A3022 RMK A01 T00611091  RH  033%=      5-min Rain = 0
KLE1 112334Z 35013KT 06/M09 A3022 RMK A01 T00601091  RH  033%=      5-min Rain = 0
KLE1 112335Z 35013KT 06/M09 A3022 RMK A01 T00601091  RH  033%=      5-min Rain = 0
KLE1 112336Z 36014KT 06/M09 A3022 RMK A01 T00601091  RH  033%=      5-min Rain = 0
KLE1 112337Z 35016KT 06/M09 A3022 RMK A01 T00591091  RH  033%=      5-min Rain = 0
KLE1 112338Z 35013KT 06/M09 A3022 RMK A01 T00591091  RH  033%=      5-min Rain = 0
KLE1 112339Z 35015KT 06/M09 A3023 RMK A01 T00591091  RH  033%=      5-min Rain = 0
KLE1 112340Z 35013KT 06/M09 A3023 RMK A01 T00591091  RH  033%=      5-min Rain = 0
KLE1 112341Z 35013KT 06/M09 A3023 RMK A01 T00581092  RH  033%=      5-min Rain = 0
KLE1 112342Z 35014KT 06/M09 A3023 RMK A01 T00571092  RH  033%=      5-min Rain = 0
KLE1 112343Z 35013KT 06/M09 A3023 RMK A01 T00561092  RH  034%=      5-min Rain = 0
KLE1 112344Z 35015KT 06/M09 A3023 RMK A01 T00561091  RH  034%=      5-min Rain = 0
KLE1 112345Z 35014KT 06/M09 A3023 RMK A01 T00561091  RH  034%=      5-min Rain = 0
KLE1 112346Z 35012KT 06/M09 A3023 RMK A01 T00561091  RH  034%=      5-min Rain = 0
KLE1 112347Z 35012KT 06/M09 A3023 RMK A01 T00551092  RH  034%=      5-min Rain = 0
KLE1 112348Z 35012KT 05/M09 A3023 RMK A01 T00541092  RH  034%=      5-min Rain = 0
KLE1 112349Z 36011KT 05/M09 A3023 RMK A01 T00531092  RH  034%=      5-min Rain = 0
KLE1 112350Z 00010KT 05/M09 A3023 RMK A01 T00521092  RH  035%=      5-min Rain = 0
KLE1 112351Z 00010KT 05/M09 A3023 RMK A01 T00511092  RH  035%=      5-min Rain = 0
KLE1 112352Z 00010KT 05/M09 A3023 RMK A01 T00501092  RH  035%=      5-min Rain = 0
KLE1 112353Z 00010KT 05/M09 A3023 RMK A01 T00481092  RH  035%=      5-min Rain = 0
KLE1 112354Z 00009KT 05/M09 A3023 RMK A01 T00471092  RH  036%=      5-min Rain = 0
KLE1 112355Z 00009KT 05/M09 A3023 RMK A01 T00461093  RH  036%=      5-min Rain = 0
KLE1 112356Z 00009KT 05/M09 A3023 RMK A01 T00451092  RH  036%=      5-min Rain = 0
KLE1 112357Z 00010KT 04/M09 A3023 RMK A01 T00441092  RH  036%=      5-min Rain = 0
KLE1 112358Z 01009KT 04/M09 A3023 RMK A01 T00431092  RH  037%=      5-min Rain = 0
KLE1 112359Z 01009KT 04/M09 A3023 RMK A01 T00431092  RH  037%=      5-min Rain = 0
KLE1 120000Z 01008KT 04/M09 A3023 RMK A01 T00421092  RH  037%=      5-min Rain = 0
KLE1 120001Z 01009KT 04/M09 A3023 RMK A01 T00421092  RH  037%=      5-min Rain = 0
KLE1 120002Z 01009KT 04/M09 A3023 RMK A01 T00411092  RH  037%=      5-min Rain = 0
KLE1 120003Z 01009KT 04/M09 A3023 RMK A01 T00401092  RH  038%=      5-min Rain = 0
KLE1 120004Z 01009KT 04/M09 A3023 RMK A01 T00401091  RH  038%=      5-min Rain = 0
KLE1 120005Z 01009KT 04/M09 A3023 RMK A01 T00401091  RH  038%=      5-min Rain = 0
KLE1 120006Z 01009KT 04/M09 A3023 RMK A01 T00401090  RH  038%=      5-min Rain = 0
KLE1 120007Z 01009KT 04/M09 A3023 RMK A01 T00401090  RH  038%=      5-min Rain = 0
KLE1 120008Z 01009KT 04/M09 A3023 RMK A01 T00391091  RH  038%=      5-min Rain = 0
KLE1 120009Z 01009KT 04/M09 A3023 RMK A01 T00381091  RH  038%=      5-min Rain = 0
KLE1 120010Z 01008KT 04/M09 A3023 RMK A01 T00371091  RH  038%=      5-min Rain = 0
KLE1 120011Z 01008KT 04/M09 A3023 RMK A01 T00371091  RH  039%=      5-min Rain = 0
KLE1 120012Z 01008KT 04/M09 A3024 RMK A01 T00361092  RH  039%=      5-min Rain = 0
KLE1 120013Z 01007KT 03/M09 A3024 RMK A01 T00341092  RH  039%=      5-min Rain = 0
KLE1 120014Z 01007KT 03/M09 A3024 RMK A01 T00341092  RH  039%=      5-min Rain = 0
KLE1 120015Z 01008KT 03/M09 A3024 RMK A01 T00331093  RH  039%=      5-min Rain = 0
KLE1 120016Z 01008KT 03/M09 A3024 RMK A01 T00321093  RH  040%=      5-min Rain = 0
KLE1 120017Z 01008KT 03/M09 A3024 RMK A01 T00311092  RH  040%=      5-min Rain = 0
KLE1 120018Z 01008KT 03/M09 A3024 RMK A01 T00311092  RH  040%=      5-min Rain = 0
KLE1 120019Z 00008KT 03/M09 A3024 RMK A01 T00301092  RH  040%=      5-min Rain = 0
KLE1 120020Z 01008KT 03/M09 A3024 RMK A01 T00301092  RH  040%=      5-min Rain = 0
KLE1 120021Z 01008KT 03/M09 A3024 RMK A01 T00301092  RH  040%=      5-min Rain = 0
KLE1 120022Z 01008KT 03/M09 A3024 RMK A01 T00301092  RH  040%=      5-min Rain = 0
KLE1 120023Z 01008KT 03/M09 A3024 RMK A01 T00301092  RH  040%=      5-min Rain = 0
KLE1 120024Z 01008KT 03/M09 A3024 RMK A01 T00291092  RH  040%=      5-min Rain = 0
KLE1 120025Z 01008KT 03/M09 A3024 RMK A01 T00291092  RH  041%=      5-min Rain = 0
KLE1 120026Z 01008KT 03/M09 A3024 RMK A01 T00291092  RH  041%=      5-min Rain = 0
KLE1 120027Z 01007KT 03/M09 A3025 RMK A01 T00281092  RH  041%=      5-min Rain = 0
KLE1 120028Z 01007KT 03/M09 A3025 RMK A01 T00281092  RH  041%=      5-min Rain = 0
KLE1 120029Z 01007KT 03/M09 A3025 RMK A01 T00271093  RH  041%=      5-min Rain = 0
KLE1 120030Z 01007KT 03/M09 A3025 RMK A01 T00261093  RH  041%=      5-min Rain = 0
KLE1 120031Z 01007KT 03/M09 A3025 RMK A01 T00261092  RH  041%=      5-min Rain = 0
KLE1 120032Z 01007KT 03/M09 A3025 RMK A01 T00251092  RH  042%=      5-min Rain = 0
KLE1 120033Z 01007KT 03/M09 A3025 RMK A01 T00251092  RH  042%=      5-min Rain = 0
KLE1 120034Z 01007KT 03/M09 A3025 RMK A01 T00251092  RH  042%=      5-min Rain = 0
KLE1 120035Z 01007KT 02/M09 A3025 RMK A01 T00241092  RH  042%=      5-min Rain = 0
KLE1 120036Z 01006KT 02/M09 A3025 RMK A01 T00241091  RH  042%=      5-min Rain = 0
KLE1 120037Z 01006KT 02/M09 A3025 RMK A01 T00241091  RH  042%=      5-min Rain = 0
KLE1 120038Z 01006KT 02/M09 A3025 RMK A01 T00241091  RH  042%=      5-min Rain = 0
KLE1 120039Z 01006KT 02/M09 A3025 RMK A01 T00241091  RH  042%=      5-min Rain = 0
KLE1 120040Z 00006KT 02/M09 A3025 RMK A01 T00241091  RH  042%=      5-min Rain = 0
KLE1 120041Z 00006KT 02/M09 A3025 RMK A01 T00231092  RH  042%=      5-min Rain = 0
KLE1 120042Z 00006KT 02/M09 A3025 RMK A01 T00231092  RH  042%=      5-min Rain = 0
KLE1 120043Z 00006KT 02/M09 A3025 RMK A01 T00221092  RH  043%=      5-min Rain = 0
KLE1 120044Z 36005KT 02/M09 A3025 RMK A01 T00221092  RH  043%=      5-min Rain = 0
KLE1 120045Z 36005KT 02/M09 A3025 RMK A01 T00221092  RH  043%=      5-min Rain = 0
KLE1 120046Z 36005KT 02/M09 A3025 RMK A01 T00221092  RH  043%=      5-min Rain = 0
KLE1 120047Z 35005KT 02/M09 A3025 RMK A01 T00211093  RH  042%=      5-min Rain = 0
KLE1 120048Z 35005KT 02/M10 A3026 RMK A01 T00201095  RH  042%=      5-min Rain = 0
KLE1 120049Z 35006KT 02/M10 A3026 RMK A01 T00191095  RH  043%=      5-min Rain = 0
KLE1 120050Z 35006KT 02/M10 A3026 RMK A01 T00181095  RH  043%=      5-min Rain = 0
KLE1 120051Z 34007KT 02/M10 A3026 RMK A01 T00181095  RH  043%=      5-min Rain = 0
KLE1 120052Z 35007KT 02/M10 A3026 RMK A01 T00171095  RH  043%=      5-min Rain = 0
KLE1 120053Z 35007KT 02/M10 A3026 RMK A01 T00161096  RH  043%=      5-min Rain = 0
KLE1 120054Z 35007KT 02/M10 A3026 RMK A01 T00151095  RH  044%=      5-min Rain = 0
KLE1 120055Z 35008KT 01/M10 A3026 RMK A01 T00141095  RH  044%=      5-min Rain = 0
KLE1 120056Z 35008KT 01/M10 A3026 RMK A01 T00141095  RH  044%=      5-min Rain = 0
KLE1 120057Z 35008KT 01/M10 A3026 RMK A01 T00131095  RH  044%=      5-min Rain = 0
KLE1 120058Z 35008KT 01/M10 A3026 RMK A01 T00121095  RH  045%=      5-min Rain = 0
KLE1 120059Z 34007KT 01/M10 A3026 RMK A01 T00121095  RH  045%=      5-min Rain = 0
KLE1 120100Z 34007KT 01/M10 A3026 RMK A01 T00101096  RH  045%=      5-min Rain = 0
KLE1 120101Z 35008KT 01/M10 A3026 RMK A01 T00091096  RH  045%=      5-min Rain = 0
KLE1 120102Z 35008KT 01/M10 A3026 RMK A01 T00081096  RH  046%=      5-min Rain = 0
KLE1 120103Z 35008KT 01/M10 A3026 RMK A01 T00081096  RH  046%=      5-min Rain = 0
KLE1 120104Z 35008KT 01/M10 A3026 RMK A01 T00081096  RH  046%=      5-min Rain = 0
KLE1 120105Z 35008KT 01/M10 A3026 RMK A01 T00081095  RH  046%=      5-min Rain = 0
KLE1 120106Z 35008KT 01/M10 A3026 RMK A01 T00081096  RH  046%=      5-min Rain = 0
KLE1 120107Z 35008KT 01/M10 A3026 RMK A01 T00071096  RH  046%=      5-min Rain = 0
KLE1 120108Z 35008KT 01/M10 A3026 RMK A01 T00061097  RH  046%=      5-min Rain = 0
KLE1 120109Z 35008KT 01/M10 A3026 RMK A01 T00051097  RH  046%=      5-min Rain = 0
KLE1 120110Z 35008KT 01/M10 A3026 RMK A01 T00051097  RH  047%=      5-min Rain = 0
KLE1 120111Z 35008KT 00/M10 A3026 RMK A01 T00041096  RH  047%=      5-min Rain = 0
KLE1 120112Z 35009KT 01/M10 A3026 RMK A01 T00051096  RH  047%=      5-min Rain = 0
KLE1 120113Z 35009KT 00/M10 A3026 RMK A01 T00041097  RH  047%=      5-min Rain = 0
KLE1 120114Z 35009KT 00/M10 A3026 RMK A01 T00041097  RH  047%=      5-min Rain = 0
KLE1 120115Z 35009KT 00/M10 A3026 RMK A01 T00041097  RH  047%=      5-min Rain = 0
KLE1 120116Z 35009KT 00/M10 A3026 RMK A01 T00031097  RH  047%=      5-min Rain = 0
KLE1 120117Z 35009KT 00/M10 A3026 RMK A01 T00041096  RH  047%=      5-min Rain = 0
KLE1 120118Z 35010KT 00/M10 A3026 RMK A01 T00041097  RH  047%=      5-min Rain = 0
KLE1 120119Z 35010KT 00/M10 A3026 RMK A01 T00031097  RH  047%=      5-min Rain = 0
KLE1 120120Z 35010KT 00/M10 A3026 RMK A01 T00021097  RH  047%=      5-min Rain = 0
KLE1 120121Z 35010KT 00/M10 A3026 RMK A01 T00021097  RH  048%=      5-min Rain = 0
KLE1 120122Z 35010KT 00/M10 A3026 RMK A01 T00021096  RH  048%=      5-min Rain = 0
KLE1 120123Z 35010KT 00/M10 A3026 RMK A01 T00021095  RH  048%=      5-min Rain = 0
KLE1 120124Z 35010KT 00/M10 A3026 RMK A01 T00021096  RH  048%=      5-min Rain = 0
KLE1 120125Z 35010KT 00/M10 A3026 RMK A01 T00021096  RH  048%=      5-min Rain = 0
KLE1 120126Z 35009KT 00/M10 A3026 RMK A01 T00021095  RH  048%=      5-min Rain = 0
KLE1 120127Z 35009KT 00/M10 A3026 RMK A01 T00011096  RH  048%=      5-min Rain = 0
KLE1 120128Z 35009KT 00/10 A3026 RMK A01 T00000-96  RH  048%=      5-min Rain = 0
KLE1 120129Z 35008KT 00/10 A3026 RMK A01 T00-00-96  RH  048%=      5-min Rain = 0
KLE1 120130Z 35008KT M00/M10 A3026 RMK A01 T10011097  RH  048%=      5-min Rain = 0
KLE1 120131Z 35007KT M00/M10 A3026 RMK A01 T10021097  RH  048%=      5-min Rain = 0
KLE1 120132Z 35007KT M00/M10 A3026 RMK A01 T10031098  RH  049%=      5-min Rain = 0
KLE1 120133Z 35007KT M00/M10 A3026 RMK A01 T10031098  RH  049%=      5-min Rain = 0
KLE1 120134Z 35007KT M00/M10 A3027 RMK A01 T10031097  RH  049%=      5-min Rain = 0
KLE1 120135Z 35007KT M00/M10 A3027 RMK A01 T10031097  RH  049%=      5-min Rain = 0
KLE1 120136Z 35007KT M00/M10 A3027 RMK A01 T10021096  RH  049%=      5-min Rain = 0
KLE1 120137Z 35007KT M00/M10 A3027 RMK A01 T10011095  RH  049%=      5-min Rain = 0
KLE1 120138Z 35006KT M00/M10 A3027 RMK A01 T10011096  RH  049%=      5-min Rain = 0
KLE1 120139Z 34006KT M00/M10 A3027 RMK A01 T10011096  RH  049%=      5-min Rain = 0
KLE1 120140Z 34006KT M00/M10 A3027 RMK A01 T10011096  RH  049%=      5-min Rain = 0
KLE1 120141Z 34006KT M00/M10 A3027 RMK A01 T10011095  RH  049%=      5-min Rain = 0
KLE1 120142Z 34006KT 00/10 A3027 RMK A01 T00-00-95  RH  049%=      5-min Rain = 0
KLE1 120143Z 34006KT 00/09 A3027 RMK A01 T00-00-94  RH  049%=      5-min Rain = 0
KLE1 120144Z 34005KT 00/09 A3027 RMK A01 T00-00-94  RH  049%=      5-min Rain = 0
KLE1 120145Z 33005KT 00/09 A3027 RMK A01 T00000-93  RH  049%=      5-min Rain = 0
KLE1 120146Z 33006KT 00/09 A3027 RMK A01 T00000-94  RH  049%=      5-min Rain = 0
KLE1 120147Z 33006KT M00/M10 A3027 RMK A01 T10011095  RH  049%=      5-min Rain = 0
KLE1 120148Z 33006KT M00/M10 A3028 RMK A01 T10021097  RH  049%=      5-min Rain = 0
KLE1 120149Z 33006KT M00/M10 A3028 RMK A01 T10031097  RH  049%=      5-min Rain = 0
KLE1 120150Z 33006KT M00/M10 A3028 RMK A01 T10031097  RH  049%=      5-min Rain = 0
KLE1 120151Z 34006KT M00/M10 A3028 RMK A01 T10031097  RH  049%=      5-min Rain = 0
KLE1 120152Z 34006KT M00/M10 A3028 RMK A01 T10031097  RH  049%=      5-min Rain = 0
KLE1 120153Z 34006KT M00/M10 A3028 RMK A01 T10031096  RH  049%=      5-min Rain = 0
KLE1 120154Z 34006KT M00/M10 A3028 RMK A01 T10031097  RH  049%=      5-min Rain = 0
KLE1 120155Z 34006KT M00/M10 A3028 RMK A01 T10031097  RH  049%=      5-min Rain = 0
KLE1 120156Z 35006KT M00/M10 A3028 RMK A01 T10031097  RH  049%=      5-min Rain = 0
KLE1 120157Z 35007KT M00/M10 A3028 RMK A01 T10041097  RH  049%=      5-min Rain = 0
KLE1 120158Z 35007KT M01/M10 A3028 RMK A01 T10051097  RH  050%=      5-min Rain = 0
KLE1 120159Z 35007KT M01/M10 A3028 RMK A01 T10051096  RH  050%=      5-min Rain = 0
KLE1 120200Z 35007KT M01/M10 A3028 RMK A01 T10061097  RH  050%=      5-min Rain = 0
KLE1 120201Z 35007KT M01/M10 A3028 RMK A01 T10071097  RH  051%=      5-min Rain = 0
KLE1 120202Z 35006KT M01/M10 A3028 RMK A01 T10081097  RH  051%=      5-min Rain = 0
KLE1 120203Z 35006KT M01/M10 A3028 RMK A01 T10081097  RH  051%=      5-min Rain = 0
KLE1 120204Z 35006KT M01/M10 A3028 RMK A01 T10091097  RH  051%=      5-min Rain = 0
KLE1 120205Z 35006KT M01/M10 A3028 RMK A01 T10091097  RH  051%=      5-min Rain = 0
KLE1 120206Z 35005KT M01/M10 A3028 RMK A01 T10091096  RH  052%=      5-min Rain = 0
KLE1 120207Z 34005KT M01/M10 A3028 RMK A01 T10081096  RH  052%=      5-min Rain = 0
KLE1 120208Z 34004KT M01/M10 A3029 RMK A01 T10081096  RH  051%=      5-min Rain = 0
KLE1 120209Z 34004KT M01/M10 A3029 RMK A01 T10081096  RH  051%=      5-min Rain = 0
KLE1 120210Z 33004KT M01/M10 A3029 RMK A01 T10081096  RH  051%=      5-min Rain = 0
KLE1 120211Z 33004KT M01/M10 A3029 RMK A01 T10081096  RH  051%=      5-min Rain = 0
KLE1 120212Z 32004KT M01/M10 A3029 RMK A01 T10081096  RH  051%=      5-min Rain = 0
KLE1 120213Z 32003KT M01/M10 A3029 RMK A01 T10071096  RH  051%=      5-min Rain = 0
KLE1 120214Z 33003KT M01/M10 A3029 RMK A01 T10071097  RH  051%=      5-min Rain = 0
KLE1 120215Z 33003KT M01/M10 A3029 RMK A01 T10071097  RH  051%=      5-min Rain = 0
KLE1 120216Z 33003KT M01/M10 A3029 RMK A01 T10071096  RH  051%=      5-min Rain = 0
KLE1 120217Z 33003KT M01/M10 A3029 RMK A01 T10071096  RH  051%=      5-min Rain = 0
KLE1 120218Z 34004KT M01/M10 A3029 RMK A01 T10071096  RH  051%=      5-min Rain = 0
KLE1 120219Z 34003KT M01/M10 A3029 RMK A01 T10071096  RH  051%=      5-min Rain = 0
KLE1 120220Z 34004KT M01/M10 A3029 RMK A01 T10061096  RH  051%=      5-min Rain = 0
KLE1 120221Z 35005KT M01/M10 A3029 RMK A01 T10071096  RH  051%=      5-min Rain = 0
KLE1 120222Z 35005KT M01/M10 A3029 RMK A01 T10061095  RH  051%=      5-min Rain = 0
KLE1 120223Z 34005KT M01/M10 A3029 RMK A01 T10061095  RH  051%=      5-min Rain = 0
KLE1 120224Z 34006KT M01/M10 A3029 RMK A01 T10071096  RH  051%=      5-min Rain = 0
KLE1 120225Z 35006KT M01/M10 A3029 RMK A01 T10081095  RH  052%=      5-min Rain = 0
KLE1 120226Z 34005KT M01/M10 A3029 RMK A01 T10091096  RH  052%=      5-min Rain = 0
KLE1 120227Z 34005KT M01/M10 A3029 RMK A01 T10101095  RH  052%=      5-min Rain = 0
KLE1 120228Z 34005KT M01/M10 A3029 RMK A01 T10101095  RH  053%=      5-min Rain = 0
KLE1 120229Z 33004KT M01/M09 A3029 RMK A01 T10101094  RH  053%=      5-min Rain = 0
KLE1 120230Z 33004KT M01/M09 A3029 RMK A01 T10101094  RH  053%=      5-min Rain = 0
KLE1 120231Z 33004KT M01/M09 A3029 RMK A01 T10101094  RH  053%=      5-min Rain = 0
KLE1 120232Z 33004KT M01/M09 A3029 RMK A01 T10101094  RH  053%=      5-min Rain = 0
KLE1 120233Z 33004KT M01/M09 A3029 RMK A01 T10101094  RH  053%=      5-min Rain = 0
KLE1 120234Z 34005KT M01/M09 A3029 RMK A01 T10101094  RH  053%=      5-min Rain = 0
KLE1 120235Z 35005KT M01/M09 A3029 RMK A01 T10091094  RH  053%=      5-min Rain = 0
KLE1 120236Z 35005KT M01/M10 A3029 RMK A01 T10091095  RH  052%=      5-min Rain = 0
KLE1 120237Z 35005KT M01/M10 A3029 RMK A01 T10101096  RH  052%=      5-min Rain = 0
KLE1 120238Z 35005KT M01/M10 A3029 RMK A01 T10111096  RH  052%=      5-min Rain = 0
KLE1 120239Z 34005KT M01/M10 A3029 RMK A01 T10131097  RH  053%=      5-min Rain = 0
KLE1 120240Z 34004KT M01/M10 A3029 RMK A01 T10141098  RH  053%=      5-min Rain = 0
KLE1 120241Z 34004KT M01/M10 A3029 RMK A01 T10141097  RH  053%=      5-min Rain = 0
KLE1 120242Z 33004KT M01/M10 A3029 RMK A01 T10141096  RH  054%=      5-min Rain = 0
KLE1 120243Z 33004KT M01/M10 A3029 RMK A01 T10141095  RH  054%=      5-min Rain = 0
KLE1 120244Z 33004KT M01/M10 A3029 RMK A01 T10131095  RH  054%=      5-min Rain = 0
KLE1 120245Z 33004KT M01/M09 A3029 RMK A01 T10121094  RH  054%=      5-min Rain = 0
KLE1 120246Z 33005KT M01/M09 A3029 RMK A01 T10121094  RH  053%=      5-min Rain = 0
KLE1 120247Z 34005KT M01/M09 A3029 RMK A01 T10121094  RH  053%=      5-min Rain = 0
KLE1 120248Z 33005KT M01/M10 A3029 RMK A01 T10121095  RH  053%=      5-min Rain = 0
KLE1 120249Z 33004KT M01/M10 A3029 RMK A01 T10121095  RH  053%=      5-min Rain = 0
KLE1 120250Z 33004KT M01/M10 A3029 RMK A01 T10121095  RH  053%=      5-min Rain = 0
KLE1 120251Z 33005KT M01/M10 A3029 RMK A01 T10121095  RH  054%=      5-min Rain = 0
KLE1 120252Z 33004KT M01/M09 A3029 RMK A01 T10121094  RH  054%=      5-min Rain = 0
KLE1 120253Z 33004KT M01/M09 A3029 RMK A01 T10111093  RH  054%=      5-min Rain = 0
KLE1 120254Z 33004KT M01/M09 A3029 RMK A01 T10101092  RH  054%=      5-min Rain = 0
KLE1 120255Z 33005KT M01/M09 A3029 RMK A01 T10101093  RH  053%=      5-min Rain = 0
KLE1 120256Z 31004KT M01/M09 A3029 RMK A01 T10101094  RH  053%=      5-min Rain = 0
KLE1 120257Z 31004KT M01/M10 A3029 RMK A01 T10101096  RH  052%=      5-min Rain = 0
KLE1 120258Z 30003KT M01/M10 A3029 RMK A01 T10121097  RH  052%=      5-min Rain = 0
KLE1 120259Z 30004KT M01/M10 A3029 RMK A01 T10131098  RH  052%=      5-min Rain = 0
KLE1 120300Z 30004KT M01/M10 A3029 RMK A01 T10141098  RH  053%=      5-min Rain = 0
KLE1 120301Z 30004KT M02/M10 A3029 RMK A01 T10151098  RH  053%=      5-min Rain = 0
KLE1 120302Z 30004KT M02/M10 A3029 RMK A01 T10161099  RH  053%=      5-min Rain = 0
KLE1 120303Z 32004KT M02/M10 A3029 RMK A01 T10171098  RH  054%=      5-min Rain = 0
KLE1 120304Z 32005KT M02/M10 A3029 RMK A01 T10161097  RH  054%=      5-min Rain = 0
KLE1 120305Z 31005KT M02/M10 A3029 RMK A01 T10161096  RH  054%=      5-min Rain = 0
KLE1 120306Z 31005KT M02/M10 A3029 RMK A01 T10151096  RH  054%=      5-min Rain = 0
KLE1 120307Z 30005KT M02/M10 A3029 RMK A01 T10151096  RH  054%=      5-min Rain = 0
KLE1 120308Z 31005KT M02/M10 A3029 RMK A01 T10151096  RH  054%=      5-min Rain = 0
KLE1 120309Z 31005KT M02/M10 A3029 RMK A01 T10161095  RH  055%=      5-min Rain = 0
KLE1 120310Z 31005KT M02/M09 A3029 RMK A01 T10161090  RH  057%=      5-min Rain = 0
KLE1 120311Z 32005KT M02/M09 A3029 RMK A01 T10161085  RH  060%=      5-min Rain = 0
KLE1 120312Z 33005KT M02/M08 A3029 RMK A01 T10171083  RH  061%=      5-min Rain = 0
KLE1 120313Z 33005KT M02/M08 A3029 RMK A01 T10171081  RH  062%=      5-min Rain = 0
KLE1 120314Z 34005KT M02/M08 A3029 RMK A01 T10161080  RH  062%=      5-min Rain = 0
KLE1 120315Z 34004KT M02/M08 A3029 RMK A01 T10161082  RH  061%=      5-min Rain = 0
KLE1 120316Z 34005KT M02/M08 A303 RMK A01 T10151083  RH  060%=      5-min Rain = 0
KLE1 120317Z 33004KT M02/M08 A303 RMK A01 T10151084  RH  059%=      5-min Rain = 0
KLE1 120318Z 33004KT M01/M09 A303 RMK A01 T10141086  RH  058%=      5-min Rain = 0
KLE1 120319Z 31004KT M01/M09 A303 RMK A01 T10141087  RH  058%=      5-min Rain = 0
KLE1 120320Z 31004KT M01/M09 A303 RMK A01 T10141088  RH  057%=      5-min Rain = 0
KLE1 120321Z 31004KT M01/M09 A303 RMK A01 T10131088  RH  057%=      5-min Rain = 0
KLE1 120322Z 30004KT M01/M09 A303 RMK A01 T10131089  RH  056%=      5-min Rain = 0
KLE1 120323Z 31004KT M01/M09 A303 RMK A01 T10131090  RH  056%=      5-min Rain = 0
KLE1 120324Z 32004KT M01/M09 A303 RMK A01 T10131090  RH  056%=      5-min Rain = 0
KLE1 120325Z 32005KT M01/M09 A303 RMK A01 T10131090  RH  056%=      5-min Rain = 0
KLE1 120326Z 32005KT M01/M09 A303 RMK A01 T10131091  RH  055%=      5-min Rain = 0
KLE1 120327Z 32004KT M01/M09 A303 RMK A01 T10131091  RH  055%=      5-min Rain = 0
KLE1 120328Z 32004KT M01/M09 A303 RMK A01 T10131091  RH  055%=      5-min Rain = 0
KLE1 120329Z 32004KT M01/M09 A303 RMK A01 T10141092  RH  055%=      5-min Rain = 0
KLE1 120330Z 31003KT M02/M09 A303 RMK A01 T10151093  RH  055%=      5-min Rain = 0
KLE1 120331Z 31004KT M02/M09 A303 RMK A01 T10151094  RH  055%=      5-min Rain = 0
KLE1 120332Z 30004KT M02/M09 A303 RMK A01 T10161094  RH  055%=      5-min Rain = 0
KLE1 120333Z 30004KT M02/M10 A303 RMK A01 T10161095  RH  055%=      5-min Rain = 0
KLE1 120334Z 30004KT M02/M10 A303 RMK A01 T10171095  RH  055%=      5-min Rain = 0
KLE1 120335Z 30004KT M02/M10 A303 RMK A01 T10181096  RH  055%=      5-min Rain = 0
KLE1 120336Z 31004KT M02/M10 A303 RMK A01 T10191096  RH  055%=      5-min Rain = 0
KLE1 120337Z 30004KT M02/M10 A303 RMK A01 T10191096  RH  056%=      5-min Rain = 0
KLE1 120338Z 31004KT M02/M10 A303 RMK A01 T10201096  RH  056%=      5-min Rain = 0
KLE1 120339Z 32005KT M02/M10 A303 RMK A01 T10201096  RH  056%=      5-min Rain = 0
KLE1 120340Z 32004KT M02/M10 A303 RMK A01 T10211096  RH  057%=      5-min Rain = 0
KLE1 120341Z 33004KT M02/M10 A303 RMK A01 T10221096  RH  057%=      5-min Rain = 0
KLE1 120342Z 33005KT M02/M10 A3029 RMK A01 T10231097  RH  057%=      5-min Rain = 0
KLE1 120343Z 33005KT M02/M10 A3029 RMK A01 T10231097  RH  057%=      5-min Rain = 0
KLE1 120344Z 33004KT M02/M10 A3029 RMK A01 T10241097  RH  057%=      5-min Rain = 0
KLE1 120345Z 33005KT M02/M10 A3029 RMK A01 T10241098  RH  057%=      5-min Rain = 0
KLE1 120346Z 33006KT M03/M10 A3029 RMK A01 T10261099  RH  057%=      5-min Rain = 0
KLE1 120347Z 33006KT M03/M10 A3029 RMK A01 T10281101  RH  057%=      5-min Rain = 0
KLE1 120348Z 34005KT M03/M10 A3029 RMK A01 T10301100  RH  058%=      5-min Rain = 0
KLE1 120349Z 33005KT M03/M10 A3029 RMK A01 T10311101  RH  059%=      5-min Rain = 0
KLE1 120350Z 33006KT M03/M10 A3029 RMK A01 T10321102  RH  058%=      5-min Rain = 0
KLE1 120351Z 33006KT M03/M10 A3029 RMK A01 T10341104  RH  059%=      5-min Rain = 0
KLE1 120352Z 34006KT M04/M11 A3029 RMK A01 T10361105  RH  059%=      5-min Rain = 0
KLE1 120353Z 33007KT M04/M11 A3029 RMK A01 T10381106  RH  059%=      5-min Rain = 0
KLE1 120354Z 34007KT M04/M11 A3029 RMK A01 T10401106  RH  060%=      5-min Rain = 0
KLE1 120355Z 34008KT M04/M11 A3029 RMK A01 T10411106  RH  061%=      5-min Rain = 0
KLE1 120356Z 34008KT M04/M11 A3029 RMK A01 T10431107  RH  061%=      5-min Rain = 0
KLE1 120357Z 34008KT M04/M11 A3029 RMK A01 T10441107  RH  062%=      5-min Rain = 0
KLE1 120358Z 35009KT M04/M11 A3029 RMK A01 T10441106  RH  062%=      5-min Rain = 0
KLE1 120359Z 35009KT M04/M11 A3029 RMK A01 T10441106  RH  062%=      5-min Rain = 0
KLE1 120400Z 35009KT M04/M10 A3029 RMK A01 T10441104  RH  063%=      5-min Rain = 0
KLE1 120401Z 35009KT M04/M10 A3029 RMK A01 T10421102  RH  063%=      5-min Rain = 0
KLE1 120402Z 35009KT M04/M10 A3029 RMK A01 T10401101  RH  063%=      5-min Rain = 0
KLE1 120403Z 35008KT M04/M10 A3029 RMK A01 T10391100  RH  062%=      5-min Rain = 0
KLE1 120404Z 35008KT M04/M10 A3029 RMK A01 T10381101  RH  062%=      5-min Rain = 0
KLE1 120405Z 35007KT M04/M10 A3029 RMK A01 T10381101  RH  062%=      5-min Rain = 0
KLE1 120406Z 35007KT M04/M10 A3029 RMK A01 T10381102  RH  061%=      5-min Rain = 0
KLE1 120407Z 35007KT M04/M10 A303 RMK A01 T10391103  RH  061%=      5-min Rain = 0
KLE1 120408Z 35008KT M04/M10 A303 RMK A01 T10411104  RH  062%=      5-min Rain = 0
KLE1 120409Z 35007KT M04/M10 A303 RMK A01 T10421103  RH  062%=      5-min Rain = 0
KLE1 120410Z 36007KT M04/M10 A303 RMK A01 T10421103  RH  063%=      5-min Rain = 0
KLE1 120411Z 35007KT M04/M10 A303 RMK A01 T10421102  RH  063%=      5-min Rain = 0
KLE1 120412Z 35007KT M04/M10 A303 RMK A01 T10421101  RH  063%=      5-min Rain = 0
KLE1 120413Z 35006KT M04/M10 A303 RMK A01 T10421101  RH  063%=      5-min Rain = 0
KLE1 120414Z 35007KT M04/M10 A303 RMK A01 T10421102  RH  063%=      5-min Rain = 0
KLE1 120415Z 36007KT M04/M10 A303 RMK A01 T10431102  RH  063%=      5-min Rain = 0
KLE1 120416Z 00007KT M04/M10 A303 RMK A01 T10421101  RH  064%=      5-min Rain = 0
KLE1 120417Z 00007KT M04/M10 A303 RMK A01 T10421102  RH  063%=      5-min Rain = 0
KLE1 120418Z 00008KT M04/M10 A303 RMK A01 T10421102  RH  063%=      5-min Rain = 0
KLE1 120419Z 00009KT M04/M10 A303 RMK A01 T10411102  RH  063%=      5-min Rain = 0
KLE1 120420Z 01009KT M04/M10 A303 RMK A01 T10411101  RH  063%=      5-min Rain = 0
KLE1 120421Z 01009KT M04/M10 A303 RMK A01 T10401100  RH  063%=      5-min Rain = 0
KLE1 120422Z 01009KT M04/M10 A303 RMK A01 T10391100  RH  063%=      5-min Rain = 0
KLE1 120423Z 02009KT M04/M10 A303 RMK A01 T10381100  RH  062%=      5-min Rain = 0
KLE1 120424Z 01009KT M04/M10 A303 RMK A01 T10381100  RH  062%=      5-min Rain = 0
KLE1 120425Z 01009KT M04/M10 A303 RMK A01 T10381100  RH  062%=      5-min Rain = 0
KLE1 120426Z 01009KT M04/M10 A303 RMK A01 T10381099  RH  063%=      5-min Rain = 0
KLE1 120427Z 02009KT M04/M10 A303 RMK A01 T10381098  RH  063%=      5-min Rain = 0
KLE1 120428Z 01010KT M04/M10 A303 RMK A01 T10381098  RH  063%=      5-min Rain = 0
KLE1 120429Z 01009KT M04/M10 A303 RMK A01 T10361096  RH  063%=      5-min Rain = 0
KLE1 120430Z 01009KT M04/M10 A303 RMK A01 T10351095  RH  063%=      5-min Rain = 0
KLE1 120431Z 01008KT M03/M09 A303 RMK A01 T10331094  RH  063%=      5-min Rain = 0
KLE1 120432Z 01008KT M03/M10 A303 RMK A01 T10321095  RH  062%=      5-min Rain = 0
KLE1 120433Z 01009KT M03/M10 A303 RMK A01 T10341098  RH  061%=      5-min Rain = 0
KLE1 120434Z 01009KT M04/M10 A303 RMK A01 T10351099  RH  062%=      5-min Rain = 0
KLE1 120435Z 01010KT M04/M10 A303 RMK A01 T10361098  RH  062%=      5-min Rain = 0
KLE1 120436Z 01010KT M04/M10 A303 RMK A01 T10351097  RH  063%=      5-min Rain = 0
KLE1 120437Z 01009KT M04/M10 A303 RMK A01 T10351096  RH  063%=      5-min Rain = 0
KLE1 120438Z 01009KT M03/M09 A303 RMK A01 T10331094  RH  062%=      5-min Rain = 0
KLE1 120439Z 01009KT M03/M10 A303 RMK A01 T10321095  RH  062%=      5-min Rain = 0
KLE1 120440Z 01009KT M03/M10 A303 RMK A01 T10321095  RH  062%=      5-min Rain = 0
KLE1 120441Z 01008KT M03/M10 A303 RMK A01 T10311095  RH  062%=      5-min Rain = 0
KLE1 120442Z 01008KT M03/M09 A303 RMK A01 T10301094  RH  062%=      5-min Rain = 0
KLE1 120443Z 00008KT M03/M09 A303 RMK A01 T10301094  RH  062%=      5-min Rain = 0
KLE1 120444Z 00008KT M03/M09 A303 RMK A01 T10291093  RH  061%=      5-min Rain = 0
KLE1 120445Z 36008KT M03/M09 A303 RMK A01 T10291094  RH  061%=      5-min Rain = 0
KLE1 120446Z 35007KT M03/M10 A303 RMK A01 T10291095  RH  060%=      5-min Rain = 0
KLE1 120447Z 35007KT M03/M10 A303 RMK A01 T10311098  RH  060%=      5-min Rain = 0
KLE1 120448Z 35007KT M03/M10 A303 RMK A01 T10341101  RH  060%=      5-min Rain = 0
KLE1 120449Z 35007KT M04/M10 A303 RMK A01 T10361102  RH  060%=      5-min Rain = 0
KLE1 120450Z 34007KT M04/M10 A303 RMK A01 T10381104  RH  060%=      5-min Rain = 0
KLE1 120451Z 34006KT M04/M11 A303 RMK A01 T10401106  RH  060%=      5-min Rain = 0
KLE1 120452Z 33005KT M04/M11 A303 RMK A01 T10411105  RH  061%=      5-min Rain = 0
KLE1 120453Z 34006KT M04/M10 A303 RMK A01 T10411102  RH  063%=      5-min Rain = 0
KLE1 120454Z 34006KT M04/M10 A303 RMK A01 T10401099  RH  064%=      5-min Rain = 0
KLE1 120455Z 34006KT M04/M10 A303 RMK A01 T10401099  RH  063%=      5-min Rain = 0
KLE1 120456Z 34006KT M04/M10 A303 RMK A01 T10401099  RH  063%=      5-min Rain = 0
KLE1 120457Z 34006KT M04/M10 A303 RMK A01 T10391099  RH  063%=      5-min Rain = 0
KLE1 120458Z 34006KT M04/M10 A303 RMK A01 T10391099  RH  063%=      5-min Rain = 0
KLE1 120459Z 35006KT M04/M10 A303 RMK A01 T10381098  RH  063%=      5-min Rain = 0
KLE1 120500Z 35006KT M04/M10 A303 RMK A01 T10371098  RH  063%=      5-min Rain = 0
KLE1 120501Z 36007KT M04/M10 A303 RMK A01 T10361096  RH  063%=      5-min Rain = 0
KLE1 120502Z 00007KT M04/M10 A303 RMK A01 T10351096  RH  063%=      5-min Rain = 0
KLE1 120503Z 36007KT M04/M10 A303 RMK A01 T10351096  RH  063%=      5-min Rain = 0
KLE1 120504Z 36007KT M04/M10 A303 RMK A01 T10351096  RH  063%=      5-min Rain = 0
KLE1 120505Z 36006KT M04/M10 A303 RMK A01 T10351096  RH  063%=      5-min Rain = 0
KLE1 120506Z 00006KT M04/M10 A303 RMK A01 T10361096  RH  063%=      5-min Rain = 0
KLE1 120507Z 36006KT M04/M10 A303 RMK A01 T10371097  RH  063%=      5-min Rain = 0
KLE1 120508Z 36006KT M04/M10 A303 RMK A01 T10381098  RH  063%=      5-min Rain = 0
KLE1 120509Z 35005KT M04/M10 A303 RMK A01 T10381098  RH  063%=      5-min Rain = 0
KLE1 120510Z 35005KT M04/M10 A303 RMK A01 T10391098  RH  063%=      5-min Rain = 0
KLE1 120511Z 34004KT M04/M10 A303 RMK A01 T10401099  RH  063%=      5-min Rain = 0
KLE1 120512Z 32004KT M04/M10 A303 RMK A01 T10401099  RH  063%=      5-min Rain = 0
KLE1 120513Z 31003KT M04/M10 A303 RMK A01 T10391099  RH  063%=      5-min Rain = 0
KLE1 120514Z 30003KT M04/M10 A303 RMK A01 T10401100  RH  063%=      5-min Rain = 0
KLE1 120515Z 27003KT M04/M10 A303 RMK A01 T10401100  RH  063%=      5-min Rain = 0
KLE1 120516Z 25005KT M04/M10 A303 RMK A01 T10401100  RH  063%=      5-min Rain = 0
KLE1 120517Z 25007KT M04/M10 A3031 RMK A01 T10411103  RH  062%=      5-min Rain = 0
KLE1 120518Z 25006KT M05/M11 A3031 RMK A01 T10471107  RH  063%=      5-min Rain = 0
KLE1 120519Z 25006KT M05/M11 A3031 RMK A01 T10501106  RH  065%=      5-min Rain = 0
KLE1 120520Z 25006KT M05/M10 A3031 RMK A01 T10501103  RH  066%=      5-min Rain = 0
KLE1 120521Z 24005KT M05/M10 A303 RMK A01 T10501101  RH  067%=      5-min Rain = 0
KLE1 120522Z 25004KT M05/M10 A303 RMK A01 T10501101  RH  068%=      5-min Rain = 0
KLE1 120523Z 24004KT M05/M10 A303 RMK A01 T10481099  RH  068%=      5-min Rain = 0
KLE1 120524Z 25006KT M05/M10 A303 RMK A01 T10471099  RH  067%=      5-min Rain = 0
KLE1 120525Z 26005KT M05/M10 A303 RMK A01 T10471100  RH  066%=      5-min Rain = 0
KLE1 120526Z 27006KT M05/M10 A303 RMK A01 T10471101  RH  066%=      5-min Rain = 0
KLE1 120527Z 25008KT M05/M10 A303 RMK A01 T10471101  RH  066%=      5-min Rain = 0
KLE1 120528Z 26006KT M05/M10 A303 RMK A01 T10471102  RH  066%=      5-min Rain = 0
KLE1 120529Z 26007KT M05/M10 A303 RMK A01 T10491104  RH  065%=      5-min Rain = 0
KLE1 120530Z 26007KT M05/M10 A303 RMK A01 T10501104  RH  066%=      5-min Rain = 0
KLE1 120531Z 26007KT M05/M10 A303 RMK A01 T10501104  RH  066%=      5-min Rain = 0
KLE1 120532Z 27006KT M05/M10 A303 RMK A01 T10511104  RH  066%=      5-min Rain = 0
KLE1 120533Z 28005KT M05/M11 A303 RMK A01 T10521105  RH  066%=      5-min Rain = 0
KLE1 120534Z 27006KT M05/M11 A303 RMK A01 T10521105  RH  066%=      5-min Rain = 0
KLE1 120535Z 28006KT M05/M11 A303 RMK A01 T10521105  RH  066%=      5-min Rain = 0
KLE1 120536Z 27006KT M05/M11 A303 RMK A01 T10521106  RH  066%=      5-min Rain = 0
KLE1 120537Z 27006KT M05/M11 A303 RMK A01 T10521106  RH  066%=      5-min Rain = 0
KLE1 120538Z 27006KT M05/M11 A303 RMK A01 T10521106  RH  066%=      5-min Rain = 0
KLE1 120539Z 27006KT M05/M11 A303 RMK A01 T10531107  RH  066%=      5-min Rain = 0
KLE1 120540Z 27006KT M05/M11 A303 RMK A01 T10531107  RH  066%=      5-min Rain = 0
KLE1 120541Z 27006KT M05/M11 A303 RMK A01 T10531107  RH  066%=      5-min Rain = 0
KLE1 120542Z 27006KT M05/M11 A303 RMK A01 T10531106  RH  066%=      5-min Rain = 0
KLE1 120543Z 27007KT M05/M11 A303 RMK A01 T10531106  RH  066%=      5-min Rain = 0
KLE1 120544Z 27007KT M05/M11 A303 RMK A01 T10531107  RH  066%=      5-min Rain = 0
KLE1 120545Z 27008KT M05/M11 A303 RMK A01 T10531107  RH  066%=      5-min Rain = 0
KLE1 120546Z 26008KT M05/M11 A303 RMK A01 T10541107  RH  066%=      5-min Rain = 0
KLE1 120547Z 26008KT M06/M11 A303 RMK A01 T10551107  RH  067%=      5-min Rain = 0
KLE1 120548Z 27007KT M06/M11 A303 RMK A01 T10551107  RH  067%=      5-min Rain = 0
KLE1 120549Z 26008KT M06/M11 A303 RMK A01 T10551107  RH  067%=      5-min Rain = 0
KLE1 120550Z 27008KT M06/M11 A303 RMK A01 T10551106  RH  067%=      5-min Rain = 0
KLE1 120551Z 27008KT M05/M11 A303 RMK A01 T10541106  RH  067%=      5-min Rain = 0
KLE1 120552Z 26008KT M05/M11 A303 RMK A01 T10541106  RH  067%=      5-min Rain = 0
KLE1 120553Z 26009KT M05/M11 A303 RMK A01 T10531107  RH  066%=      5-min Rain = 0
KLE1 120554Z 27009KT M05/M11 A303 RMK A01 T10531106  RH  066%=      5-min Rain = 0
KLE1 120555Z 27008KT M05/M11 A303 RMK A01 T10531106  RH  066%=      5-min Rain = 0
KLE1 120556Z 27007KT M05/M11 A303 RMK A01 T10521105  RH  066%=      5-min Rain = 0
KLE1 120557Z 28006KT M05/M11 A303 RMK A01 T10521105  RH  066%=      5-min Rain = 0
KLE1 120558Z 28006KT M05/M11 A303 RMK A01 T10521105  RH  066%=      5-min Rain = 0
KLE1 120559Z 27006KT M05/M10 A303 RMK A01 T10511104  RH  066%=      5-min Rain = 0

Page generated in 0.141 seconds.